Time,TemperatureF,DewpointF,PressureIn,WindDirection,WindDirectionDegrees,WindSpeedMPH,WindSpeedGustMPH,Humidity,HourlyPrecipIn,Conditions,Clouds,dailyrainin,SoftwareType,DateUTC
2013-05-24 00:00:00,64.5,62.7,29.79,SW,220,0.0,0.0,94,0.04,,SKC,0.06,VWS V14.01,2013-05-24 04:00:00,
2013-05-24 00:01:00,64.7,63.2,29.77,WSW,244,0.0,2.0,95,0.06,,SKC,0.06,VWS V14.01,2013-05-24 04:01:00,
2013-05-24 00:05:00,64.5,62.7,29.79,SW,220,0.0,1.0,94,0.03,,SKC,0.00,VWS V14.01,2013-05-24 04:05:00,
2013-05-24 00:06:00,64.5,63.0,29.77,WSW,243,0.0,2.0,95,0.06,,SKC,0.06,VWS V14.01,2013-05-24 04:06:00,
2013-05-24 00:07:00,64.5,63.0,29.77,WSW,244,0.0,2.0,95,0.06,,SKC,0.06,VWS V14.01,2013-05-24 04:07:00,
2013-05-24 00:10:00,64.5,62.7,29.79,SW,217,0.0,2.0,94,0.03,,SKC,0.00,VWS V14.01,2013-05-24 04:10:00,
2013-05-24 00:11:00,64.5,63.0,29.77,WSW,244,0.0,0.0,95,0.06,,SKC,0.06,VWS V14.01,2013-05-24 04:11:00,
2013-05-24 00:12:00,64.5,63.0,29.77,WSW,244,0.0,0.0,95,0.06,,SKC,0.06,VWS V14.01,2013-05-24 04:12:00,
2013-05-24 00:15:00,64.5,62.7,29.79,WSW,240,0.0,0.0,94,0.03,,SKC,0.00,VWS V14.01,2013-05-24 04:15:00,
2013-05-24 00:17:00,64.5,63.0,29.76,WSW,246,0.0,0.0,95,0.06,,SKC,0.06,VWS V14.01,2013-05-24 04:17:00,
2013-05-24 00:18:00,64.5,63.0,29.76,WSW,246,0.0,0.0,95,0.06,,SKC,0.06,VWS V14.01,2013-05-24 04:18:00,
2013-05-24 00:20:00,64.5,62.7,29.79,WSW,239,0.0,0.0,94,0.03,,SKC,0.00,VWS V14.01,2013-05-24 04:20:00,
2013-05-24 00:22:00,64.5,63.0,29.76,WSW,244,2.0,2.0,95,0.08,,SKC,0.08,VWS V14.01,2013-05-24 04:22:00,
2013-05-24 00:23:00,64.3,62.8,29.76,WSW,247,2.0,2.0,95,0.08,,SKC,0.08,VWS V14.01,2013-05-24 04:23:00,
2013-05-24 00:25:00,64.5,62.7,29.79,WSW,239,0.0,0.0,94,0.04,,SKC,0.01,VWS V14.01,2013-05-24 04:25:00,
2013-05-24 00:27:00,64.3,62.8,29.76,WSW,246,1.0,3.0,95,0.07,,SKC,0.08,VWS V14.01,2013-05-24 04:27:00,
2013-05-24 00:28:00,64.3,62.8,29.76,WSW,246,2.0,3.0,95,0.07,,SKC,0.08,VWS V14.01,2013-05-24 04:28:00,
2013-05-24 00:30:00,64.5,62.7,29.78,WSW,239,0.0,0.0,94,0.04,,SKC,0.01,VWS V14.01,2013-05-24 04:30:00,
2013-05-24 00:32:00,64.3,62.8,29.76,WSW,239,0.0,3.0,95,0.07,,SKC,0.08,VWS V14.01,2013-05-24 04:32:00,
2013-05-24 00:33:00,64.3,62.8,29.76,WSW,240,0.0,3.0,95,0.07,,SKC,0.08,VWS V14.01,2013-05-24 04:33:00,
2013-05-24 00:34:00,64.3,62.8,29.76,WSW,241,0.0,3.0,95,0.07,,SKC,0.08,VWS V14.01,2013-05-24 04:34:00,
2013-05-24 00:35:00,64.7,62.9,29.78,WSW,241,0.0,0.0,94,0.08,,SKC,0.05,VWS V14.01,2013-05-24 04:35:00,
2013-05-24 00:38:00,64.2,62.7,29.76,WSW,241,0.0,0.0,95,0.03,,SKC,0.08,VWS V14.01,2013-05-24 04:38:00,
2013-05-24 00:39:00,64.2,62.7,29.76,WSW,241,0.0,0.0,95,0.03,,SKC,0.08,VWS V14.01,2013-05-24 04:39:00,
2013-05-24 00:40:00,64.7,63.2,29.78,WSW,240,0.0,0.0,95,0.07,,SKC,0.06,VWS V14.01,2013-05-24 04:40:00,
2013-05-24 00:43:00,64.2,62.7,29.76,WSW,240,0.0,0.0,95,0.02,,SKC,0.08,VWS V14.01,2013-05-24 04:43:00,
2013-05-24 00:44:00,64.2,62.7,29.76,WSW,240,0.0,0.0,95,0.02,,SKC,0.08,VWS V14.01,2013-05-24 04:44:00,
2013-05-24 00:45:00,64.0,62.5,29.76,WSW,244,0.0,0.0,95,0.02,,SKC,0.08,VWS V14.01,2013-05-24 04:45:00,
2013-05-24 00:49:00,64.0,62.5,29.76,WSW,244,0.0,0.0,95,0.02,,SKC,0.08,VWS V14.01,2013-05-24 04:49:00,
2013-05-24 00:50:00,64.0,62.5,29.76,WSW,244,0.0,0.0,95,0.02,,SKC,0.08,VWS V14.01,2013-05-24 04:50:00,
2013-05-24 00:54:00,63.9,62.4,29.76,WSW,244,0.0,0.0,95,0.02,,SKC,0.08,VWS V14.01,2013-05-24 04:54:00,
2013-05-24 00:55:00,63.9,62.4,29.76,WSW,244,0.0,0.0,95,0.02,,SKC,0.08,VWS V14.01,2013-05-24 04:55:00,
2013-05-24 00:59:00,63.9,62.4,29.76,WSW,244,0.0,0.0,95,0.02,,SKC,0.08,VWS V14.01,2013-05-24 04:59:00,
2013-05-24 01:00:00,63.9,62.4,29.76,WSW,237,1.0,1.0,95,0.02,,SKC,0.08,VWS V14.01,2013-05-24 05:00:00,
2013-05-24 01:04:00,63.9,62.4,29.76,WSW,237,1.0,1.0,95,0.02,,SKC,0.08,VWS V14.01,2013-05-24 05:04:00,
2013-05-24 01:05:00,63.9,62.4,29.76,WSW,237,1.0,1.0,95,0.02,,SKC,0.08,VWS V14.01,2013-05-24 05:05:00,
2013-05-24 01:10:00,63.9,62.4,29.76,WSW,237,1.0,1.0,95,0.02,,SKC,0.08,VWS V14.01,2013-05-24 05:10:00,
2013-05-24 01:11:00,63.9,62.4,29.76,WSW,237,1.0,1.0,95,0.02,,SKC,0.08,VWS V14.01,2013-05-24 05:11:00,
2013-05-24 01:15:00,63.9,62.4,29.75,WSW,237,1.0,1.0,95,0.02,,SKC,0.08,VWS V14.01,2013-05-24 05:15:00,
2013-05-24 01:16:00,63.9,62.4,29.75,WSW,237,1.0,1.0,95,0.02,,SKC,0.08,VWS V14.01,2013-05-24 05:16:00,
2013-05-24 01:17:00,63.9,62.4,29.75,WSW,237,1.0,1.0,95,0.02,,SKC,0.08,VWS V14.01,2013-05-24 05:17:00,
2013-05-24 01:20:00,63.9,62.4,29.75,WSW,237,1.0,1.0,95,0.02,,SKC,0.08,VWS V14.01,2013-05-24 05:20:00,
2013-05-24 01:21:00,63.9,62.4,29.75,WSW,237,1.0,1.0,95,0.02,,SKC,0.08,VWS V14.01,2013-05-24 05:21:00,
2013-05-24 01:22:00,63.9,62.4,29.75,WSW,237,1.0,1.0,95,0.02,,SKC,0.08,VWS V14.01,2013-05-24 05:22:00,
2013-05-24 01:25:00,63.9,62.4,29.75,WSW,237,1.0,1.0,95,0.00,,SKC,0.08,VWS V14.01,2013-05-24 05:25:00,
2013-05-24 01:26:00,63.4,62.0,29.75,SW,236,0.0,1.0,95,0.05,,SKC,0.13,VWS V14.01,2013-05-24 05:26:00,
2013-05-24 01:27:00,63.4,62.0,29.75,SW,234,0.0,1.0,95,0.05,,SKC,0.13,VWS V14.01,2013-05-24 05:27:00,
2013-05-24 01:28:00,63.4,62.0,29.75,SW,234,0.0,1.0,95,0.05,,SKC,0.13,VWS V14.01,2013-05-24 05:28:00,
2013-05-24 01:30:00,63.2,61.8,29.74,SW,233,0.0,0.0,95,0.05,,SKC,0.13,VWS V14.01,2013-05-24 05:30:00,
2013-05-24 01:32:00,63.2,61.8,29.74,SW,233,0.0,0.0,95,0.05,,SKC,0.13,VWS V14.01,2013-05-24 05:32:00,
2013-05-24 01:33:00,63.2,61.8,29.74,SW,232,0.0,0.0,95,0.05,,SKC,0.13,VWS V14.01,2013-05-24 05:33:00,
2013-05-24 01:35:00,64.2,62.7,29.76,WSW,240,0.0,3.0,95,0.07,,SKC,0.08,VWS V14.01,2013-05-24 05:35:00,
2013-05-24 01:36:00,63.2,61.8,29.74,SW,234,0.0,0.0,95,0.05,,SKC,0.13,VWS V14.01,2013-05-24 05:36:00,
2013-05-24 01:37:00,63.2,61.8,29.74,SW,234,0.0,0.0,95,0.05,,SKC,0.13,VWS V14.01,2013-05-24 05:37:00,
2013-05-24 01:38:00,63.2,61.8,29.74,SW,230,0.0,0.0,95,0.06,,SKC,0.14,VWS V14.01,2013-05-24 05:38:00,
2013-05-24 01:40:00,64.2,62.7,29.76,WSW,240,0.0,0.0,95,0.03,,SKC,0.08,VWS V14.01,2013-05-24 05:40:00,
2013-05-24 01:41:00,63.2,61.8,29.74,SW,230,0.0,0.0,95,0.06,,SKC,0.14,VWS V14.01,2013-05-24 05:41:00,
2013-05-24 01:42:00,63.2,61.8,29.74,SW,233,0.0,0.0,95,0.06,,SKC,0.14,VWS V14.01,2013-05-24 05:42:00,
2013-05-24 01:43:00,63.2,61.8,29.74,SW,230,0.0,0.0,95,0.07,,SKC,0.15,VWS V14.01,2013-05-24 05:43:00,
2013-05-24 01:44:00,63.2,61.8,29.74,SW,232,0.0,0.0,95,0.07,,SKC,0.15,VWS V14.01,2013-05-24 05:44:00,
2013-05-24 01:45:00,64.0,62.5,29.76,WSW,244,0.0,0.0,95,0.02,,SKC,0.08,VWS V14.01,2013-05-24 05:45:00,
2013-05-24 01:46:00,63.2,61.8,29.74,SW,232,0.0,0.0,95,0.07,,SKC,0.15,VWS V14.01,2013-05-24 05:46:00,
2013-05-24 01:48:00,63.2,61.8,29.74,SW,233,0.0,0.0,95,0.07,,SKC,0.15,VWS V14.01,2013-05-24 05:48:00,
2013-05-24 01:49:00,63.2,61.8,29.74,SW,233,0.0,0.0,95,0.07,,SKC,0.15,VWS V14.01,2013-05-24 05:49:00,
2013-05-24 01:50:00,64.0,62.5,29.76,WSW,244,0.0,0.0,95,0.02,,SKC,0.08,VWS V14.01,2013-05-24 05:50:00,
2013-05-24 01:51:00,63.2,61.8,29.74,SW,233,0.0,0.0,95,0.07,,SKC,0.15,VWS V14.01,2013-05-24 05:51:00,
2013-05-24 01:53:00,63.2,61.8,29.74,SW,233,0.0,0.0,95,0.07,,SKC,0.15,VWS V14.01,2013-05-24 05:53:00,
2013-05-24 01:54:00,63.2,61.8,29.74,SW,233,0.0,0.0,95,0.07,,SKC,0.15,VWS V14.01,2013-05-24 05:54:00,
2013-05-24 01:55:00,63.9,62.4,29.76,WSW,244,0.0,0.0,95,0.02,,SKC,0.08,VWS V14.01,2013-05-24 05:55:00,
2013-05-24 01:56:00,63.2,61.8,29.74,SW,233,0.0,0.0,95,0.07,,SKC,0.15,VWS V14.01,2013-05-24 05:56:00,
2013-05-24 01:57:00,63.2,61.8,29.74,SW,233,0.0,0.0,95,0.07,,SKC,0.15,VWS V14.01,2013-05-24 05:57:00,
2013-05-24 01:58:00,63.2,61.8,29.74,SW,233,0.0,0.0,95,0.07,,SKC,0.15,VWS V14.01,2013-05-24 05:58:00,
2013-05-24 01:59:00,63.2,61.8,29.73,SW,233,0.0,0.0,95,0.07,,SKC,0.15,VWS V14.01,2013-05-24 05:59:00,
2013-05-24 02:00:00,63.9,62.4,29.76,WSW,244,0.0,0.0,95,0.02,,SKC,0.08,VWS V14.01,2013-05-24 06:00:00,
2013-05-24 02:02:00,63.2,61.8,29.73,SW,227,0.0,0.0,95,0.07,,SKC,0.15,VWS V14.01,2013-05-24 06:02:00,
2013-05-24 02:03:00,63.2,61.8,29.73,SW,227,0.0,0.0,95,0.07,,SKC,0.15,VWS V14.01,2013-05-24 06:03:00,
2013-05-24 02:04:00,63.2,61.8,29.73,SW,227,0.0,0.0,95,0.07,,SKC,0.15,VWS V14.01,2013-05-24 06:04:00,
2013-05-24 02:05:00,63.2,61.8,29.73,SW,227,0.0,0.0,95,0.07,,SKC,0.15,VWS V14.01,2013-05-24 06:05:00,
2013-05-24 02:07:00,63.2,61.8,29.73,SW,229,0.0,0.0,95,0.07,,SKC,0.15,VWS V14.01,2013-05-24 06:07:00,
2013-05-24 02:08:00,62.9,61.5,29.73,SW,229,0.0,0.0,95,0.07,,SKC,0.15,VWS V14.01,2013-05-24 06:08:00,
2013-05-24 02:09:00,62.9,61.5,29.73,SW,227,0.0,0.0,95,0.13,,SKC,0.21,VWS V14.01,2013-05-24 06:09:00,
2013-05-24 02:10:00,62.9,61.5,29.73,SW,227,0.0,0.0,95,0.13,,SKC,0.21,VWS V14.01,2013-05-24 06:10:00,
2013-05-24 02:13:00,62.9,61.5,29.73,SW,229,0.0,0.0,95,0.13,,SKC,0.21,VWS V14.01,2013-05-24 06:13:00,
2013-05-24 02:14:00,62.9,61.5,29.73,SW,229,0.0,0.0,95,0.13,,SKC,0.21,VWS V14.01,2013-05-24 06:14:00,
2013-05-24 02:15:00,62.9,61.5,29.72,SW,226,0.0,0.0,95,0.13,,SKC,0.21,VWS V14.01,2013-05-24 06:15:00,
2013-05-24 02:16:00,62.9,61.5,29.72,SW,226,0.0,0.0,95,0.13,,SKC,0.21,VWS V14.01,2013-05-24 06:16:00,
2013-05-24 02:18:00,62.9,61.5,29.72,SW,230,0.0,1.0,95,0.14,,SKC,0.22,VWS V14.01,2013-05-24 06:18:00,
2013-05-24 02:19:00,62.9,61.5,29.72,SW,230,0.0,1.0,95,0.14,,SKC,0.22,VWS V14.01,2013-05-24 06:19:00,
2013-05-24 02:20:00,63.9,62.4,29.75,WSW,237,1.0,1.0,95,0.02,,SKC,0.08,VWS V14.01,2013-05-24 06:20:00,
2013-05-24 02:21:00,62.9,61.5,29.72,SW,230,0.0,0.0,95,0.14,,SKC,0.22,VWS V14.01,2013-05-24 06:21:00,
2013-05-24 02:22:00,62.9,61.5,29.72,SW,230,0.0,0.0,95,0.14,,SKC,0.22,VWS V14.01,2013-05-24 06:22:00,
2013-05-24 02:23:00,62.9,61.5,29.72,SW,230,0.0,0.0,95,0.14,,SKC,0.22,VWS V14.01,2013-05-24 06:23:00,
2013-05-24 02:25:00,62.9,61.5,29.72,SW,230,0.0,0.0,95,0.14,,SKC,0.22,VWS V14.01,2013-05-24 06:25:00,
2013-05-24 02:26:00,62.9,61.5,29.72,SW,229,0.0,0.0,95,0.14,,SKC,0.22,VWS V14.01,2013-05-24 06:26:00,
2013-05-24 02:28:00,62.9,61.5,29.72,SW,229,0.0,0.0,95,0.14,,SKC,0.22,VWS V14.01,2013-05-24 06:28:00,
2013-05-24 02:29:00,62.9,61.8,29.72,SW,232,0.0,0.0,96,0.14,,SKC,0.22,VWS V14.01,2013-05-24 06:29:00,
2013-05-24 02:30:00,62.9,61.8,29.71,SW,230,0.0,0.0,96,0.14,,SKC,0.22,VWS V14.01,2013-05-24 06:30:00,
2013-05-24 02:32:00,62.9,61.8,29.71,SW,230,0.0,0.0,96,0.09,,SKC,0.22,VWS V14.01,2013-05-24 06:32:00,
2013-05-24 02:33:00,62.9,61.8,29.71,SW,227,0.0,0.0,96,0.09,,SKC,0.22,VWS V14.01,2013-05-24 06:33:00,
2013-05-24 02:34:00,62.9,61.8,29.71,SW,227,0.0,0.0,96,0.09,,SKC,0.22,VWS V14.01,2013-05-24 06:34:00,
2013-05-24 02:35:00,62.9,61.8,29.71,SW,227,0.0,0.0,96,0.09,,SKC,0.22,VWS V14.01,2013-05-24 06:35:00,
2013-05-24 02:38:00,62.9,61.8,29.71,SW,230,0.0,0.0,96,0.10,,SKC,0.23,VWS V14.01,2013-05-24 06:38:00,
2013-05-24 02:39:00,62.9,61.8,29.71,SW,230,0.0,0.0,96,0.10,,SKC,0.23,VWS V14.01,2013-05-24 06:39:00,
2013-05-24 02:40:00,62.9,61.8,29.71,SW,227,1.0,1.0,96,0.09,,SKC,0.23,VWS V14.01,2013-05-24 06:40:00,
2013-05-24 02:43:00,62.9,61.8,29.71,SW,229,2.0,2.0,96,0.09,,SKC,0.23,VWS V14.01,2013-05-24 06:43:00,
2013-05-24 02:44:00,62.9,61.8,29.71,SW,229,2.0,2.0,96,0.09,,SKC,0.23,VWS V14.01,2013-05-24 06:44:00,
2013-05-24 02:45:00,62.9,61.8,29.70,SW,229,2.0,2.0,96,0.09,,SKC,0.23,VWS V14.01,2013-05-24 06:45:00,
2013-05-24 02:46:00,62.9,61.8,29.70,SW,232,1.0,1.0,96,0.08,,SKC,0.23,VWS V14.01,2013-05-24 06:46:00,
2013-05-24 02:49:00,62.9,61.8,29.70,SW,232,1.0,1.0,96,0.08,,SKC,0.23,VWS V14.01,2013-05-24 06:49:00,
2013-05-24 02:50:00,62.9,61.8,29.70,SW,232,1.0,1.0,96,0.08,,SKC,0.23,VWS V14.01,2013-05-24 06:50:00,
2013-05-24 02:52:00,62.9,61.8,29.70,SW,232,1.0,1.0,96,0.08,,SKC,0.23,VWS V14.01,2013-05-24 06:52:00,
2013-05-24 02:55:00,62.9,61.8,29.70,SW,232,1.0,1.0,96,0.08,,SKC,0.23,VWS V14.01,2013-05-24 06:55:00,
2013-05-24 02:57:00,62.9,61.8,29.70,SW,232,1.0,1.0,96,0.08,,SKC,0.23,VWS V14.01,2013-05-24 06:57:00,
2013-05-24 02:58:00,62.9,61.8,29.70,SW,232,1.0,1.0,96,0.08,,SKC,0.23,VWS V14.01,2013-05-24 06:58:00,
2013-05-24 03:00:00,62.9,61.8,29.69,SW,232,1.0,1.0,96,0.08,,SKC,0.23,VWS V14.01,2013-05-24 07:00:00,
2013-05-24 03:01:00,62.9,61.8,29.69,SW,232,1.0,1.0,96,0.08,,SKC,0.23,VWS V14.01,2013-05-24 07:01:00,
2013-05-24 03:03:00,62.9,61.8,29.69,SW,232,1.0,1.0,96,0.08,,SKC,0.23,VWS V14.01,2013-05-24 07:03:00,
2013-05-24 03:05:00,62.9,61.8,29.69,SW,232,1.0,1.0,96,0.08,,SKC,0.23,VWS V14.01,2013-05-24 07:05:00,
2013-05-24 03:06:00,62.9,61.8,29.69,SW,232,1.0,1.0,96,0.08,,SKC,0.23,VWS V14.01,2013-05-24 07:06:00,
2013-05-24 03:08:00,62.9,61.8,29.69,SW,232,1.0,1.0,96,0.08,,SKC,0.23,VWS V14.01,2013-05-24 07:08:00,
2013-05-24 03:09:00,62.9,61.8,29.69,SW,232,1.0,1.0,96,0.08,,SKC,0.23,VWS V14.01,2013-05-24 07:09:00,
2013-05-24 03:10:00,62.9,61.8,29.69,SW,232,1.0,1.0,96,0.02,,SKC,0.23,VWS V14.01,2013-05-24 07:10:00,
2013-05-24 03:11:00,62.9,61.8,29.69,SW,232,1.0,1.0,96,0.02,,SKC,0.23,VWS V14.01,2013-05-24 07:11:00,
2013-05-24 03:13:00,62.9,61.8,29.69,SW,234,0.0,1.0,96,0.02,,SKC,0.23,VWS V14.01,2013-05-24 07:13:00,
2013-05-24 03:15:00,62.9,61.8,29.67,SW,223,0.0,1.0,96,0.12,,SKC,0.33,VWS V14.01,2013-05-24 07:15:00,
2013-05-24 03:16:00,62.9,61.8,29.67,SW,227,0.0,2.0,96,0.12,,SKC,0.33,VWS V14.01,2013-05-24 07:16:00,
2013-05-24 03:19:00,62.9,61.8,29.67,SW,226,0.0,2.0,96,0.12,,SKC,0.33,VWS V14.01,2013-05-24 07:19:00,
2013-05-24 03:20:00,62.9,61.5,29.72,SW,230,0.0,1.0,95,0.14,,SKC,0.22,VWS V14.01,2013-05-24 07:20:00,
2013-05-24 03:21:00,63.5,62.3,29.67,SSW,213,0.0,0.0,96,0.11,,SKC,0.33,VWS V14.01,2013-05-24 07:21:00,
2013-05-24 03:22:00,63.5,62.3,29.67,SW,215,3.0,3.0,96,0.11,,SKC,0.33,VWS V14.01,2013-05-24 07:22:00,
2013-05-24 03:24:00,63.5,62.3,29.67,WSW,250,1.0,4.0,96,0.11,,SKC,0.33,VWS V14.01,2013-05-24 07:24:00,
2013-05-24 03:26:00,63.5,62.3,29.67,WSW,257,0.0,0.0,96,0.11,,SKC,0.33,VWS V14.01,2013-05-24 07:26:00,
2013-05-24 03:27:00,63.5,62.3,29.67,WSW,256,0.0,0.0,96,0.11,,SKC,0.33,VWS V14.01,2013-05-24 07:27:00,
2013-05-24 03:29:00,63.5,62.3,29.66,West,261,0.0,0.0,96,0.12,,SKC,0.34,VWS V14.01,2013-05-24 07:29:00,
2013-05-24 03:30:00,62.9,61.8,29.71,SW,230,0.0,0.0,96,0.14,,SKC,0.22,VWS V14.01,2013-05-24 07:30:00,
2013-05-24 03:32:00,63.5,62.3,29.66,WSW,258,0.0,0.0,96,0.12,,SKC,0.34,VWS V14.01,2013-05-24 07:32:00,
2013-05-24 03:35:00,63.5,62.3,29.66,WSW,250,3.0,3.0,96,0.12,,SKC,0.34,VWS V14.01,2013-05-24 07:35:00,
2013-05-24 03:37:00,63.5,62.3,29.66,WSW,248,0.0,3.0,96,0.12,,SKC,0.34,VWS V14.01,2013-05-24 07:37:00,
2013-05-24 03:38:00,63.5,62.3,29.66,WSW,247,0.0,3.0,96,0.12,,SKC,0.34,VWS V14.01,2013-05-24 07:38:00,
2013-05-24 03:40:00,63.5,62.3,29.66,WSW,246,0.0,0.0,96,0.11,,SKC,0.34,VWS V14.01,2013-05-24 07:40:00,
2013-05-24 03:42:00,63.5,62.3,29.66,WSW,246,0.0,0.0,96,0.11,,SKC,0.34,VWS V14.01,2013-05-24 07:42:00,
2013-05-24 03:43:00,63.5,62.3,29.66,WSW,246,0.0,0.0,96,0.11,,SKC,0.34,VWS V14.01,2013-05-24 07:43:00,
2013-05-24 03:45:00,63.5,62.3,29.65,WSW,248,0.0,0.0,96,0.11,,SKC,0.34,VWS V14.01,2013-05-24 07:45:00,
2013-05-24 03:46:00,63.5,62.3,29.65,WSW,241,0.0,0.0,96,0.11,,SKC,0.34,VWS V14.01,2013-05-24 07:46:00,
2013-05-24 03:48:00,63.5,62.3,29.65,WSW,241,0.0,0.0,96,0.11,,SKC,0.34,VWS V14.01,2013-05-24 07:48:00,
2013-05-24 03:50:00,63.5,62.3,29.65,WSW,241,0.0,0.0,96,0.11,,SKC,0.34,VWS V14.01,2013-05-24 07:50:00,
2013-05-24 03:51:00,63.5,62.3,29.65,WSW,243,0.0,0.0,96,0.11,,SKC,0.34,VWS V14.01,2013-05-24 07:51:00,
2013-05-24 03:53:00,63.5,62.3,29.65,WSW,243,0.0,0.0,96,0.11,,SKC,0.34,VWS V14.01,2013-05-24 07:53:00,
2013-05-24 03:54:00,63.5,62.3,29.65,WSW,243,0.0,0.0,96,0.11,,SKC,0.34,VWS V14.01,2013-05-24 07:54:00,
2013-05-24 03:55:00,62.9,61.8,29.70,SW,232,1.0,1.0,96,0.08,,SKC,0.23,VWS V14.01,2013-05-24 07:55:00,
2013-05-24 03:56:00,63.5,62.3,29.65,WSW,243,0.0,0.0,96,0.11,,SKC,0.34,VWS V14.01,2013-05-24 07:56:00,
2013-05-24 03:57:00,63.5,62.3,29.65,WSW,243,0.0,0.0,96,0.11,,SKC,0.34,VWS V14.01,2013-05-24 07:57:00,
2013-05-24 03:58:00,63.4,62.2,29.65,WSW,241,0.0,0.0,96,0.11,,SKC,0.34,VWS V14.01,2013-05-24 07:58:00,
2013-05-24 03:59:00,63.4,62.2,29.64,WSW,241,0.0,0.0,96,0.11,,SKC,0.34,VWS V14.01,2013-05-24 07:59:00,
2013-05-24 04:00:00,62.9,61.8,29.69,SW,232,1.0,1.0,96,0.08,,SKC,0.23,VWS V14.01,2013-05-24 08:00:00,
2013-05-24 04:02:00,63.4,62.2,29.64,WSW,243,0.0,0.0,96,0.12,,SKC,0.35,VWS V14.01,2013-05-24 08:02:00,
2013-05-24 04:03:00,63.4,62.2,29.64,WSW,241,0.0,0.0,96,0.12,,SKC,0.35,VWS V14.01,2013-05-24 08:03:00,
2013-05-24 04:04:00,63.4,62.2,29.64,WSW,243,0.0,0.0,96,0.12,,SKC,0.35,VWS V14.01,2013-05-24 08:04:00,
2013-05-24 04:05:00,63.4,62.2,29.64,WSW,241,0.0,0.0,96,0.12,,SKC,0.35,VWS V14.01,2013-05-24 08:05:00,
2013-05-24 04:07:00,63.4,62.2,29.64,WSW,243,0.0,0.0,96,0.12,,SKC,0.35,VWS V14.01,2013-05-24 08:07:00,
2013-05-24 04:08:00,63.4,62.2,29.64,WSW,243,0.0,0.0,96,0.12,,SKC,0.35,VWS V14.01,2013-05-24 08:08:00,
2013-05-24 04:09:00,63.4,62.2,29.64,WSW,241,0.0,0.0,96,0.12,,SKC,0.35,VWS V14.01,2013-05-24 08:09:00,
2013-05-24 04:10:00,63.2,62.0,29.64,WSW,241,0.0,0.0,96,0.12,,SKC,0.35,VWS V14.01,2013-05-24 08:10:00,
2013-05-24 04:12:00,63.2,62.0,29.64,WSW,243,0.0,0.0,96,0.12,,SKC,0.35,VWS V14.01,2013-05-24 08:12:00,
2013-05-24 04:13:00,63.2,62.0,29.64,WSW,240,0.0,0.0,96,0.12,,SKC,0.35,VWS V14.01,2013-05-24 08:13:00,
2013-05-24 04:14:00,63.2,62.0,29.64,WSW,241,0.0,0.0,96,0.12,,SKC,0.35,VWS V14.01,2013-05-24 08:14:00,
2013-05-24 04:15:00,63.2,62.0,29.64,WSW,243,0.0,0.0,96,0.12,,SKC,0.35,VWS V14.01,2013-05-24 08:15:00,
2013-05-24 04:16:00,63.2,62.0,29.64,WSW,243,0.0,0.0,96,0.02,,SKC,0.35,VWS V14.01,2013-05-24 08:16:00,
2013-05-24 04:18:00,63.2,62.0,29.64,WSW,243,0.0,0.0,96,0.02,,SKC,0.35,VWS V14.01,2013-05-24 08:18:00,
2013-05-24 04:19:00,63.1,61.9,29.64,WSW,243,0.0,0.0,96,0.02,,SKC,0.35,VWS V14.01,2013-05-24 08:19:00,
2013-05-24 04:20:00,63.1,61.9,29.64,WSW,243,0.0,0.0,96,0.02,,SKC,0.35,VWS V14.01,2013-05-24 08:20:00,
2013-05-24 04:21:00,63.1,61.9,29.64,WSW,243,0.0,0.0,96,0.02,,SKC,0.35,VWS V14.01,2013-05-24 08:21:00,
2013-05-24 04:23:00,63.1,61.9,29.64,WSW,241,0.0,0.0,96,0.02,,SKC,0.35,VWS V14.01,2013-05-24 08:23:00,
2013-05-24 04:24:00,63.1,61.9,29.64,WSW,241,0.0,0.0,96,0.02,,SKC,0.35,VWS V14.01,2013-05-24 08:24:00,
2013-05-24 04:25:00,63.1,61.9,29.64,WSW,241,0.0,0.0,96,0.02,,SKC,0.35,VWS V14.01,2013-05-24 08:25:00,
2013-05-24 04:26:00,63.1,61.9,29.64,WSW,241,0.0,0.0,96,0.02,,SKC,0.35,VWS V14.01,2013-05-24 08:26:00,
2013-05-24 04:29:00,63.1,61.9,29.62,WSW,243,0.0,0.0,96,0.02,,SKC,0.35,VWS V14.01,2013-05-24 08:29:00,
2013-05-24 04:30:00,63.1,61.9,29.62,WSW,243,0.0,0.0,96,0.02,,SKC,0.35,VWS V14.01,2013-05-24 08:30:00,
2013-05-24 04:31:00,63.1,61.9,29.62,WSW,243,0.0,0.0,96,0.01,,SKC,0.35,VWS V14.01,2013-05-24 08:31:00,
2013-05-24 04:32:00,63.1,61.9,29.62,WSW,243,0.0,0.0,96,0.01,,SKC,0.35,VWS V14.01,2013-05-24 08:32:00,
2013-05-24 04:35:00,63.1,61.9,29.62,WSW,243,0.0,0.0,96,0.01,,SKC,0.35,VWS V14.01,2013-05-24 08:35:00,
2013-05-24 04:36:00,63.1,61.9,29.62,WSW,243,0.0,0.0,96,0.01,,SKC,0.35,VWS V14.01,2013-05-24 08:36:00,
2013-05-24 04:37:00,63.1,61.9,29.62,WSW,243,0.0,0.0,96,0.01,,SKC,0.35,VWS V14.01,2013-05-24 08:37:00,
2013-05-24 04:40:00,63.1,61.9,29.62,WSW,243,0.0,0.0,96,0.01,,SKC,0.35,VWS V14.01,2013-05-24 08:40:00,
2013-05-24 04:41:00,62.7,61.5,29.62,WSW,243,0.0,0.0,96,0.01,,SKC,0.35,VWS V14.01,2013-05-24 08:41:00,
2013-05-24 04:42:00,62.7,61.5,29.62,WSW,243,0.0,0.0,96,0.01,,SKC,0.35,VWS V14.01,2013-05-24 08:42:00,
2013-05-24 04:43:00,62.7,61.5,29.62,WSW,243,0.0,0.0,96,0.01,,SKC,0.35,VWS V14.01,2013-05-24 08:43:00,
2013-05-24 04:45:00,62.7,61.5,29.63,WSW,243,0.0,0.0,96,0.01,,SKC,0.35,VWS V14.01,2013-05-24 08:45:00,
2013-05-24 04:46:00,62.7,61.5,29.63,WSW,243,0.0,0.0,96,0.01,,SKC,0.35,VWS V14.01,2013-05-24 08:46:00,
2013-05-24 04:47:00,62.7,61.5,29.63,WSW,243,0.0,0.0,96,0.01,,SKC,0.35,VWS V14.01,2013-05-24 08:47:00,
2013-05-24 04:48:00,62.7,61.5,29.63,WSW,243,0.0,0.0,96,0.01,,SKC,0.35,VWS V14.01,2013-05-24 08:48:00,
2013-05-24 04:50:00,62.7,61.5,29.63,WSW,243,0.0,0.0,96,0.01,,SKC,0.35,VWS V14.01,2013-05-24 08:50:00,
2013-05-24 04:51:00,62.7,61.5,29.63,WSW,243,0.0,0.0,96,0.01,,SKC,0.35,VWS V14.01,2013-05-24 08:51:00,
2013-05-24 04:52:00,62.7,61.5,29.63,WSW,243,0.0,0.0,96,0.01,,SKC,0.35,VWS V14.01,2013-05-24 08:52:00,
2013-05-24 04:53:00,62.7,61.5,29.63,WSW,243,0.0,0.0,96,0.01,,SKC,0.35,VWS V14.01,2013-05-24 08:53:00,
2013-05-24 04:54:00,62.7,61.5,29.63,WSW,243,0.0,0.0,96,0.01,,SKC,0.35,VWS V14.01,2013-05-24 08:54:00,
2013-05-24 04:55:00,62.6,61.5,29.63,WSW,257,0.0,0.0,96,0.01,,SKC,0.35,VWS V14.01,2013-05-24 08:55:00,
2013-05-24 04:57:00,62.6,61.5,29.63,WSW,258,1.0,2.0,96,0.01,,SKC,0.35,VWS V14.01,2013-05-24 08:57:00,
2013-05-24 04:58:00,62.6,61.5,29.63,WSW,257,0.0,2.0,96,0.01,,SKC,0.35,VWS V14.01,2013-05-24 08:58:00,
2013-05-24 04:59:00,62.6,61.5,29.63,West,260,0.0,2.0,96,0.01,,SKC,0.35,VWS V14.01,2013-05-24 08:59:00,
2013-05-24 05:00:00,63.4,62.2,29.64,WSW,240,0.0,0.0,96,0.11,,SKC,0.34,VWS V14.01,2013-05-24 09:00:00,
2013-05-24 05:01:00,62.6,61.5,29.63,West,261,0.0,0.0,96,0.01,,SKC,0.35,VWS V14.01,2013-05-24 09:01:00,
2013-05-24 05:02:00,62.6,61.5,29.63,West,261,0.0,0.0,96,0.01,,SKC,0.35,VWS V14.01,2013-05-24 09:02:00,
2013-05-24 05:03:00,62.6,61.5,29.63,West,261,0.0,0.0,96,0.01,,SKC,0.35,VWS V14.01,2013-05-24 09:03:00,
2013-05-24 05:04:00,62.6,61.5,29.63,West,261,0.0,0.0,96,0.01,,SKC,0.35,VWS V14.01,2013-05-24 09:04:00,
2013-05-24 05:05:00,63.4,62.2,29.64,WSW,241,0.0,0.0,96,0.12,,SKC,0.35,VWS V14.01,2013-05-24 09:05:00,
2013-05-24 05:07:00,62.6,61.5,29.63,West,261,0.0,0.0,96,0.00,,SKC,0.35,VWS V14.01,2013-05-24 09:07:00,
2013-05-24 05:08:00,62.6,61.5,29.63,West,260,0.0,0.0,96,0.00,,SKC,0.35,VWS V14.01,2013-05-24 09:08:00,
2013-05-24 05:09:00,62.6,61.5,29.63,West,261,0.0,0.0,96,0.00,,SKC,0.35,VWS V14.01,2013-05-24 09:09:00,
2013-05-24 05:10:00,63.2,62.0,29.64,WSW,243,0.0,0.0,96,0.12,,SKC,0.35,VWS V14.01,2013-05-24 09:10:00,
2013-05-24 05:12:00,62.6,61.5,29.63,West,261,0.0,0.0,96,0.00,,SKC,0.35,VWS V14.01,2013-05-24 09:12:00,
2013-05-24 05:13:00,62.6,61.5,29.63,West,261,0.0,0.0,96,0.00,,SKC,0.35,VWS V14.01,2013-05-24 09:13:00,
2013-05-24 05:14:00,62.6,61.5,29.63,West,260,0.0,0.0,96,0.00,,SKC,0.35,VWS V14.01,2013-05-24 09:14:00,
2013-05-24 05:15:00,62.6,61.5,29.63,West,260,0.0,0.0,96,0.00,,SKC,0.35,VWS V14.01,2013-05-24 09:15:00,
2013-05-24 05:18:00,62.6,61.5,29.63,West,260,0.0,0.0,96,0.00,,SKC,0.35,VWS V14.01,2013-05-24 09:18:00,
2013-05-24 05:19:00,62.6,61.5,29.63,West,260,0.0,0.0,96,0.00,,SKC,0.35,VWS V14.01,2013-05-24 09:19:00,
2013-05-24 05:20:00,62.6,61.5,29.63,West,260,0.0,0.0,96,0.00,,SKC,0.35,VWS V14.01,2013-05-24 09:20:00,
2013-05-24 05:23:00,62.6,61.5,29.63,WNW,291,0.0,0.0,96,0.00,,SKC,0.35,VWS V14.01,2013-05-24 09:23:00,
2013-05-24 05:24:00,62.6,61.5,29.63,WNW,291,0.0,0.0,96,0.00,,SKC,0.35,VWS V14.01,2013-05-24 09:24:00,
2013-05-24 05:25:00,62.6,61.5,29.63,WNW,291,0.0,0.0,96,0.00,,SKC,0.35,VWS V14.01,2013-05-24 09:25:00,
2013-05-24 05:28:00,62.6,61.5,29.63,WNW,285,0.0,0.0,96,0.00,,SKC,0.35,VWS V14.01,2013-05-24 09:28:00,
2013-05-24 05:29:00,62.6,61.5,29.63,WNW,285,0.0,0.0,96,0.00,,SKC,0.35,VWS V14.01,2013-05-24 09:29:00,
2013-05-24 05:30:00,62.6,61.5,29.63,WNW,285,0.0,0.0,96,0.00,,SKC,0.35,VWS V14.01,2013-05-24 09:30:00,
2013-05-24 05:34:00,62.6,61.5,29.63,WNW,287,0.0,0.0,96,0.00,,SKC,0.35,VWS V14.01,2013-05-24 09:34:00,
2013-05-24 05:35:00,62.6,61.5,29.63,WNW,287,0.0,0.0,96,0.00,,SKC,0.35,VWS V14.01,2013-05-24 09:35:00,
2013-05-24 05:36:00,62.6,61.5,29.63,WNW,287,0.0,0.0,96,0.00,,SKC,0.35,VWS V14.01,2013-05-24 09:36:00,
2013-05-24 05:39:00,62.6,61.5,29.63,WNW,285,0.0,0.0,96,0.00,,SKC,0.35,VWS V14.01,2013-05-24 09:39:00,
2013-05-24 05:40:00,62.6,61.5,29.63,WNW,285,0.0,0.0,96,0.00,,SKC,0.35,VWS V14.01,2013-05-24 09:40:00,
2013-05-24 05:41:00,62.6,61.5,29.63,WNW,285,0.0,0.0,96,0.00,,SKC,0.35,VWS V14.01,2013-05-24 09:41:00,
2013-05-24 05:44:00,62.6,61.5,29.63,WNW,284,0.0,0.0,96,0.00,,SKC,0.35,VWS V14.01,2013-05-24 09:44:00,
2013-05-24 05:45:00,62.6,61.5,29.63,WNW,284,0.0,0.0,96,0.00,,SKC,0.35,VWS V14.01,2013-05-24 09:45:00,
2013-05-24 05:46:00,62.6,61.5,29.63,WNW,284,0.0,0.0,96,0.00,,SKC,0.35,VWS V14.01,2013-05-24 09:46:00,
2013-05-24 05:50:00,62.6,61.5,29.63,WNW,284,0.0,0.0,96,0.00,,SKC,0.35,VWS V14.01,2013-05-24 09:50:00,
2013-05-24 05:51:00,62.6,61.5,29.63,WNW,284,0.0,0.0,96,0.00,,SKC,0.35,VWS V14.01,2013-05-24 09:51:00,
2013-05-24 05:55:00,62.6,61.5,29.63,WNW,284,0.0,0.0,96,0.00,,SKC,0.35,VWS V14.01,2013-05-24 09:55:00,
2013-05-24 05:56:00,62.7,61.5,29.63,WNW,287,0.0,0.0,96,0.00,,SKC,0.35,VWS V14.01,2013-05-24 09:56:00,
2013-05-24 06:00:00,62.7,61.5,29.62,WNW,285,0.0,0.0,96,0.00,,SKC,0.35,VWS V14.01,2013-05-24 10:00:00,
2013-05-24 06:01:00,62.7,61.5,29.62,WNW,285,0.0,0.0,96,0.00,,SKC,0.35,VWS V14.01,2013-05-24 10:01:00,
2013-05-24 06:02:00,62.7,61.5,29.62,WNW,285,0.0,0.0,96,0.00,,SKC,0.35,VWS V14.01,2013-05-24 10:02:00,
2013-05-24 06:05:00,62.7,61.5,29.62,WNW,282,0.0,0.0,96,0.00,,SKC,0.35,VWS V14.01,2013-05-24 10:05:00,
2013-05-24 06:06:00,62.7,61.5,29.62,WNW,287,0.0,0.0,96,0.00,,SKC,0.35,VWS V14.01,2013-05-24 10:06:00,
2013-05-24 06:07:00,62.7,61.5,29.62,WNW,287,0.0,0.0,96,0.00,,SKC,0.35,VWS V14.01,2013-05-24 10:07:00,
2013-05-24 06:10:00,62.7,61.5,29.62,SSW,208,0.0,0.0,96,0.00,,SKC,0.35,VWS V14.01,2013-05-24 10:10:00,
2013-05-24 06:11:00,62.7,61.5,29.62,SSW,208,0.0,0.0,96,0.00,,SKC,0.35,VWS V14.01,2013-05-24 10:11:00,
2013-05-24 06:12:00,62.7,61.5,29.62,SSW,208,0.0,0.0,96,0.00,,SKC,0.35,VWS V14.01,2013-05-24 10:12:00,
2013-05-24 06:13:00,62.7,61.5,29.62,SW,234,0.0,0.0,96,0.00,,SKC,0.35,VWS V14.01,2013-05-24 10:13:00,
2013-05-24 06:15:00,62.6,61.5,29.63,West,261,0.0,0.0,96,0.00,,SKC,0.35,VWS V14.01,2013-05-24 10:15:00,
2013-05-24 06:16:00,62.7,61.5,29.62,SW,236,0.0,1.0,96,0.00,,SKC,0.35,VWS V14.01,2013-05-24 10:16:00,
2013-05-24 06:17:00,62.7,61.5,29.62,SW,236,0.0,1.0,96,0.00,,SKC,0.35,VWS V14.01,2013-05-24 10:17:00,
2013-05-24 06:19:00,62.7,61.5,29.62,WSW,257,0.0,1.0,96,0.00,,SKC,0.35,VWS V14.01,2013-05-24 10:19:00,
2013-05-24 06:20:00,62.6,61.5,29.63,West,260,0.0,0.0,96,0.00,,SKC,0.35,VWS V14.01,2013-05-24 10:20:00,
2013-05-24 06:21:00,62.9,61.8,29.62,West,261,0.0,0.0,96,0.00,,SKC,0.35,VWS V14.01,2013-05-24 10:21:00,
2013-05-24 06:22:00,62.9,61.8,29.62,WSW,258,0.0,0.0,96,0.00,,SKC,0.35,VWS V14.01,2013-05-24 10:22:00,
2013-05-24 06:23:00,62.9,61.8,29.62,WSW,258,0.0,0.0,96,0.00,,SKC,0.35,VWS V14.01,2013-05-24 10:23:00,
2013-05-24 06:24:00,62.9,61.8,29.62,WSW,254,0.0,0.0,96,0.00,,SKC,0.35,VWS V14.01,2013-05-24 10:24:00,
2013-05-24 06:25:00,62.6,61.5,29.63,WNW,291,0.0,0.0,96,0.00,,SKC,0.35,VWS V14.01,2013-05-24 10:25:00,
2013-05-24 06:27:00,62.9,61.8,29.62,WSW,254,0.0,0.0,96,0.00,,SKC,0.35,VWS V14.01,2013-05-24 10:27:00,
2013-05-24 06:28:00,62.9,61.8,29.62,WSW,254,0.0,0.0,96,0.00,,SKC,0.35,VWS V14.01,2013-05-24 10:28:00,
2013-05-24 06:29:00,62.9,61.8,29.62,NW,315,0.0,0.0,96,0.00,,SKC,0.35,VWS V14.01,2013-05-24 10:29:00,
2013-05-24 06:30:00,62.6,61.5,29.63,WNW,285,0.0,0.0,96,0.00,,SKC,0.35,VWS V14.01,2013-05-24 10:30:00,
2013-05-24 06:32:00,62.9,61.8,29.63,NW,315,0.0,0.0,96,0.00,,SKC,0.35,VWS V14.01,2013-05-24 10:32:00,
2013-05-24 06:33:00,62.9,61.8,29.63,NW,315,0.0,0.0,96,0.00,,SKC,0.35,VWS V14.01,2013-05-24 10:33:00,
2013-05-24 06:34:00,62.9,61.8,29.63,NW,315,0.0,0.0,96,0.00,,SKC,0.35,VWS V14.01,2013-05-24 10:34:00,
2013-05-24 06:35:00,62.9,61.8,29.63,NW,315,0.0,0.0,96,0.00,,SKC,0.35,VWS V14.01,2013-05-24 10:35:00,
2013-05-24 06:37:00,63.1,61.9,29.63,NW,315,0.0,0.0,96,0.00,,SKC,0.35,VWS V14.01,2013-05-24 10:37:00,
2013-05-24 06:38:00,63.1,61.9,29.63,NW,315,0.0,0.0,96,0.00,,SKC,0.35,VWS V14.01,2013-05-24 10:38:00,
2013-05-24 06:39:00,63.1,61.9,29.63,NW,313,0.0,0.0,96,0.00,,SKC,0.35,VWS V14.01,2013-05-24 10:39:00,
2013-05-24 06:40:00,63.1,61.9,29.63,NW,313,0.0,0.0,96,0.00,,SKC,0.35,VWS V14.01,2013-05-24 10:40:00,
2013-05-24 06:42:00,63.1,61.9,29.63,NW,315,0.0,0.0,96,0.00,,SKC,0.35,VWS V14.01,2013-05-24 10:42:00,
2013-05-24 06:43:00,63.1,61.9,29.63,NW,315,0.0,0.0,96,0.00,,SKC,0.35,VWS V14.01,2013-05-24 10:43:00,
2013-05-24 06:45:00,63.1,61.9,29.63,NW,315,0.0,0.0,96,0.00,,SKC,0.35,VWS V14.01,2013-05-24 10:45:00,
2013-05-24 06:48:00,63.1,61.9,29.63,NW,315,0.0,0.0,96,0.00,,SKC,0.35,VWS V14.01,2013-05-24 10:48:00,
2013-05-24 06:49:00,63.1,61.9,29.63,NW,315,0.0,0.0,96,0.00,,SKC,0.35,VWS V14.01,2013-05-24 10:49:00,
2013-05-24 06:50:00,63.1,61.9,29.63,NW,315,0.0,0.0,96,0.00,,SKC,0.35,VWS V14.01,2013-05-24 10:50:00,
2013-05-24 06:51:00,63.1,61.9,29.63,NW,315,0.0,0.0,96,0.00,,SKC,0.35,VWS V14.01,2013-05-24 10:51:00,
2013-05-24 06:53:00,63.1,61.9,29.63,NW,315,0.0,0.0,96,0.00,,SKC,0.35,VWS V14.01,2013-05-24 10:53:00,
2013-05-24 06:54:00,63.1,61.9,29.63,NW,315,0.0,0.0,96,0.00,,SKC,0.35,VWS V14.01,2013-05-24 10:54:00,
2013-05-24 06:55:00,62.6,61.5,29.63,WNW,287,0.0,0.0,96,0.00,,SKC,0.35,VWS V14.01,2013-05-24 10:55:00,
2013-05-24 06:56:00,63.1,61.9,29.63,NW,315,0.0,0.0,96,0.00,,SKC,0.35,VWS V14.01,2013-05-24 10:56:00,
2013-05-24 06:58:00,63.1,61.9,29.63,NW,315,0.0,0.0,96,0.00,,SKC,0.35,VWS V14.01,2013-05-24 10:58:00,
2013-05-24 06:59:00,63.1,61.9,29.63,NW,315,0.0,0.0,96,0.00,,SKC,0.35,VWS V14.01,2013-05-24 10:59:00,
2013-05-24 07:00:00,62.7,61.5,29.62,WNW,285,0.0,0.0,96,0.00,,SKC,0.35,VWS V14.01,2013-05-24 11:00:00,
2013-05-24 07:01:00,63.1,61.9,29.63,NW,315,0.0,0.0,96,0.00,,SKC,0.35,VWS V14.01,2013-05-24 11:01:00,
2013-05-24 07:02:00,63.1,61.9,29.63,NW,315,0.0,0.0,96,0.00,,SKC,0.35,VWS V14.01,2013-05-24 11:02:00,
2013-05-24 07:04:00,63.1,61.9,29.63,NW,315,0.0,0.0,96,0.00,,SKC,0.35,VWS V14.01,2013-05-24 11:04:00,
2013-05-24 07:05:00,62.7,61.5,29.62,WNW,285,0.0,0.0,96,0.00,,SKC,0.35,VWS V14.01,2013-05-24 11:05:00,
2013-05-24 07:06:00,63.1,61.9,29.63,West,278,0.0,0.0,96,0.00,,SKC,0.35,VWS V14.01,2013-05-24 11:06:00,
2013-05-24 07:07:00,63.2,62.0,29.63,West,280,0.0,0.0,96,0.00,,SKC,0.35,VWS V14.01,2013-05-24 11:07:00,
2013-05-24 07:09:00,63.1,61.9,29.63,WSW,251,0.0,2.0,96,0.00,,SKC,0.35,VWS V14.01,2013-05-24 11:09:00,
2013-05-24 07:10:00,63.1,61.9,29.63,WSW,251,0.0,0.0,96,0.00,,SKC,0.35,VWS V14.01,2013-05-24 11:10:00,
2013-05-24 07:11:00,63.1,61.9,29.63,WSW,251,0.0,0.0,96,0.00,,SKC,0.35,VWS V14.01,2013-05-24 11:11:00,
2013-05-24 07:12:00,63.1,61.9,29.63,WSW,251,0.0,0.0,96,0.00,,SKC,0.35,VWS V14.01,2013-05-24 11:12:00,
2013-05-24 07:15:00,63.2,62.0,29.64,WSW,251,0.0,0.0,96,0.00,,SKC,0.35,VWS V14.01,2013-05-24 11:15:00,
2013-05-24 07:16:00,63.2,62.0,29.64,WSW,251,0.0,0.0,96,0.00,,SKC,0.35,VWS V14.01,2013-05-24 11:16:00,
2013-05-24 07:17:00,63.2,62.0,29.64,WSW,250,0.0,0.0,96,0.00,,SKC,0.35,VWS V14.01,2013-05-24 11:17:00,
2013-05-24 07:18:00,63.2,62.0,29.64,WSW,253,0.0,0.0,96,0.00,,SKC,0.35,VWS V14.01,2013-05-24 11:18:00,
2013-05-24 07:20:00,63.2,62.0,29.64,WSW,250,0.0,0.0,96,0.00,,SKC,0.35,VWS V14.01,2013-05-24 11:20:00,
2013-05-24 07:21:00,63.2,62.0,29.64,WSW,250,0.0,0.0,96,0.00,,SKC,0.35,VWS V14.01,2013-05-24 11:21:00,
2013-05-24 07:22:00,63.2,62.0,29.64,WSW,250,0.0,0.0,96,0.00,,SKC,0.35,VWS V14.01,2013-05-24 11:22:00,
2013-05-24 07:23:00,63.2,62.0,29.64,WSW,251,0.0,0.0,96,0.00,,SKC,0.35,VWS V14.01,2013-05-24 11:23:00,
2013-05-24 07:25:00,62.9,61.8,29.62,WSW,254,0.0,0.0,96,0.00,,SKC,0.35,VWS V14.01,2013-05-24 11:25:00,
2013-05-24 07:26:00,63.2,62.0,29.64,WSW,251,0.0,0.0,96,0.00,,SKC,0.35,VWS V14.01,2013-05-24 11:26:00,
2013-05-24 07:27:00,63.2,62.0,29.64,WSW,250,0.0,0.0,96,0.00,,SKC,0.35,VWS V14.01,2013-05-24 11:27:00,
2013-05-24 07:29:00,63.2,62.0,29.64,WSW,250,0.0,0.0,96,0.00,,SKC,0.35,VWS V14.01,2013-05-24 11:29:00,
2013-05-24 07:30:00,62.9,61.8,29.63,NW,315,0.0,0.0,96,0.00,,SKC,0.35,VWS V14.01,2013-05-24 11:30:00,
2013-05-24 07:31:00,63.2,62.0,29.65,WSW,250,0.0,0.0,96,0.00,,SKC,0.35,VWS V14.01,2013-05-24 11:31:00,
2013-05-24 07:32:00,63.2,62.0,29.65,WSW,250,0.0,0.0,96,0.00,,SKC,0.35,VWS V14.01,2013-05-24 11:32:00,
2013-05-24 07:34:00,63.2,62.0,29.65,WSW,250,0.0,0.0,96,0.00,,SKC,0.35,VWS V14.01,2013-05-24 11:34:00,
2013-05-24 07:35:00,62.9,61.8,29.63,NW,315,0.0,0.0,96,0.00,,SKC,0.35,VWS V14.01,2013-05-24 11:35:00,
2013-05-24 07:37:00,63.4,62.2,29.65,WSW,253,0.0,1.0,96,0.00,,SKC,0.35,VWS V14.01,2013-05-24 11:37:00,
2013-05-24 07:38:00,63.4,62.2,29.65,WSW,253,0.0,1.0,96,0.00,,SKC,0.35,VWS V14.01,2013-05-24 11:38:00,
2013-05-24 07:39:00,63.4,62.2,29.65,WSW,253,0.0,1.0,96,0.00,,SKC,0.35,VWS V14.01,2013-05-24 11:39:00,
2013-05-24 07:40:00,63.1,61.9,29.63,NW,313,0.0,0.0,96,0.00,,SKC,0.35,VWS V14.01,2013-05-24 11:40:00,
2013-05-24 07:42:00,63.4,62.2,29.65,WSW,251,0.0,0.0,96,0.00,,SKC,0.35,VWS V14.01,2013-05-24 11:42:00,
2013-05-24 07:43:00,63.4,62.2,29.65,WSW,250,0.0,0.0,96,0.00,,SKC,0.35,VWS V14.01,2013-05-24 11:43:00,
2013-05-24 07:44:00,63.4,62.2,29.65,WSW,250,0.0,0.0,96,0.00,,SKC,0.35,VWS V14.01,2013-05-24 11:44:00,
2013-05-24 07:45:00,63.4,62.2,29.64,WSW,250,0.0,0.0,96,0.00,,SKC,0.35,VWS V14.01,2013-05-24 11:45:00,
2013-05-24 07:47:00,63.4,62.2,29.64,WSW,250,0.0,0.0,96,0.00,,SKC,0.35,VWS V14.01,2013-05-24 11:47:00,
2013-05-24 07:48:00,63.5,62.3,29.64,WSW,251,0.0,0.0,96,0.00,,SKC,0.35,VWS V14.01,2013-05-24 11:48:00,
2013-05-24 07:49:00,63.5,62.3,29.64,WSW,251,1.0,1.0,96,0.00,,SKC,0.35,VWS V14.01,2013-05-24 11:49:00,
2013-05-24 07:50:00,63.5,62.3,29.64,WSW,250,1.0,2.0,96,0.00,,SKC,0.35,VWS V14.01,2013-05-24 11:50:00,
2013-05-24 07:52:00,63.5,62.3,29.64,WSW,248,0.0,2.0,96,0.00,,SKC,0.35,VWS V14.01,2013-05-24 11:52:00,
2013-05-24 07:53:00,63.5,62.3,29.64,WSW,247,0.0,2.0,96,0.00,,SKC,0.35,VWS V14.01,2013-05-24 11:53:00,
2013-05-24 07:54:00,63.5,62.3,29.64,WSW,251,0.0,2.0,96,0.00,,SKC,0.35,VWS V14.01,2013-05-24 11:54:00,
2013-05-24 07:55:00,63.1,61.9,29.63,NW,315,0.0,0.0,96,0.00,,SKC,0.35,VWS V14.01,2013-05-24 11:55:00,
2013-05-24 07:56:00,63.5,62.3,29.64,WSW,247,0.0,0.0,96,0.00,,SKC,0.35,VWS V14.01,2013-05-24 11:56:00,
2013-05-24 07:58:00,63.5,62.3,29.64,WSW,250,0.0,0.0,96,0.00,,SKC,0.35,VWS V14.01,2013-05-24 11:58:00,
2013-05-24 08:00:00,63.5,62.3,29.65,WSW,248,0.0,0.0,96,0.00,,SKC,0.35,VWS V14.01,2013-05-24 12:00:00,
2013-05-24 08:01:00,63.5,62.3,29.65,WSW,248,0.0,0.0,96,0.00,,SKC,0.35,VWS V14.01,2013-05-24 12:01:00,
2013-05-24 08:03:00,63.5,62.3,29.65,WSW,251,0.0,0.0,96,0.00,,SKC,0.35,VWS V14.01,2013-05-24 12:03:00,
2013-05-24 08:04:00,63.5,62.3,29.65,WSW,251,0.0,0.0,96,0.00,,SKC,0.35,VWS V14.01,2013-05-24 12:04:00,
2013-05-24 08:05:00,63.5,62.3,29.65,WSW,250,0.0,0.0,96,0.00,,SKC,0.35,VWS V14.01,2013-05-24 12:05:00,
2013-05-24 08:06:00,63.5,62.3,29.65,WSW,248,0.0,0.0,96,0.00,,SKC,0.35,VWS V14.01,2013-05-24 12:06:00,
2013-05-24 08:07:00,63.5,62.3,29.65,WSW,248,0.0,0.0,96,0.00,,SKC,0.35,VWS V14.01,2013-05-24 12:07:00,
2013-05-24 08:09:00,63.5,62.3,29.65,WSW,250,0.0,0.0,96,0.00,,SKC,0.35,VWS V14.01,2013-05-24 12:09:00,
2013-05-24 08:10:00,63.5,62.3,29.65,West,260,0.0,0.0,96,0.00,,SKC,0.35,VWS V14.01,2013-05-24 12:10:00,
2013-05-24 08:11:00,63.5,62.3,29.65,WSW,258,0.0,0.0,96,0.00,,SKC,0.35,VWS V14.01,2013-05-24 12:11:00,
2013-05-24 08:12:00,63.5,62.3,29.65,WSW,257,0.0,0.0,96,0.00,,SKC,0.35,VWS V14.01,2013-05-24 12:12:00,
2013-05-24 08:14:00,63.5,62.3,29.66,WSW,257,0.0,0.0,96,0.00,,SKC,0.35,VWS V14.01,2013-05-24 12:14:00,
2013-05-24 08:15:00,63.5,62.3,29.66,WSW,257,0.0,0.0,96,0.00,,SKC,0.35,VWS V14.01,2013-05-24 12:15:00,
2013-05-24 08:16:00,63.5,62.3,29.66,WSW,257,0.0,0.0,96,0.00,,SKC,0.35,VWS V14.01,2013-05-24 12:16:00,
2013-05-24 08:17:00,63.5,62.3,29.66,WSW,257,0.0,0.0,96,0.00,,SKC,0.35,VWS V14.01,2013-05-24 12:17:00,
2013-05-24 08:20:00,63.1,61.9,29.66,WSW,258,0.0,0.0,96,0.00,,SKC,0.35,VWS V14.01,2013-05-24 12:20:00,
2013-05-24 08:21:00,63.1,61.9,29.66,West,260,0.0,0.0,96,0.00,,SKC,0.35,VWS V14.01,2013-05-24 12:21:00,
2013-05-24 08:22:00,63.1,61.9,29.66,West,260,0.0,0.0,96,0.00,,SKC,0.35,VWS V14.01,2013-05-24 12:22:00,
2013-05-24 08:23:00,63.1,61.9,29.66,WSW,258,0.0,0.0,96,0.00,,SKC,0.35,VWS V14.01,2013-05-24 12:23:00,
2013-05-24 08:25:00,63.1,61.9,29.66,WSW,258,0.0,0.0,96,0.00,,SKC,0.35,VWS V14.01,2013-05-24 12:25:00,
2013-05-24 08:26:00,62.9,61.8,29.66,West,260,0.0,0.0,96,0.00,,SKC,0.35,VWS V14.01,2013-05-24 12:26:00,
2013-05-24 08:28:00,62.9,61.8,29.66,WSW,257,0.0,0.0,96,0.00,,SKC,0.35,VWS V14.01,2013-05-24 12:28:00,
2013-05-24 08:30:00,62.9,61.8,29.67,WSW,257,0.0,0.0,96,0.00,,SKC,0.35,VWS V14.01,2013-05-24 12:30:00,
2013-05-24 08:31:00,62.9,61.8,29.67,WSW,257,0.0,0.0,96,0.00,,SKC,0.35,VWS V14.01,2013-05-24 12:31:00,
2013-05-24 08:33:00,62.9,61.8,29.67,WSW,257,0.0,0.0,96,0.00,,SKC,0.35,VWS V14.01,2013-05-24 12:33:00,
2013-05-24 08:35:00,62.9,61.8,29.67,WSW,257,0.0,0.0,96,0.00,,SKC,0.35,VWS V14.01,2013-05-24 12:35:00,
2013-05-24 08:36:00,62.9,61.8,29.67,WSW,257,0.0,0.0,96,0.00,,SKC,0.35,VWS V14.01,2013-05-24 12:36:00,
2013-05-24 08:39:00,62.9,61.8,29.67,WSW,257,0.0,0.0,96,0.00,,SKC,0.35,VWS V14.01,2013-05-24 12:39:00,
2013-05-24 08:40:00,63.4,62.2,29.65,WSW,251,0.0,1.0,96,0.00,,SKC,0.35,VWS V14.01,2013-05-24 12:40:00,
2013-05-24 08:41:00,62.9,61.8,29.67,WSW,257,0.0,0.0,96,0.00,,SKC,0.35,VWS V14.01,2013-05-24 12:41:00,
2013-05-24 08:44:00,62.9,61.8,29.68,WSW,257,0.0,0.0,96,0.00,,SKC,0.35,VWS V14.01,2013-05-24 12:44:00,
2013-05-24 08:45:00,63.4,62.2,29.64,WSW,250,0.0,0.0,96,0.00,,SKC,0.35,VWS V14.01,2013-05-24 12:45:00,
2013-05-24 08:46:00,62.9,61.8,29.68,WSW,257,0.0,0.0,96,0.00,,SKC,0.35,VWS V14.01,2013-05-24 12:46:00,
2013-05-24 08:47:00,62.9,61.8,29.68,WSW,257,0.0,0.0,96,0.00,,SKC,0.35,VWS V14.01,2013-05-24 12:47:00,
2013-05-24 08:50:00,62.9,61.8,29.68,WSW,257,0.0,0.0,96,0.00,,SKC,0.35,VWS V14.01,2013-05-24 12:50:00,
2013-05-24 08:51:00,62.9,61.8,29.68,WSW,257,0.0,0.0,96,0.00,,SKC,0.35,VWS V14.01,2013-05-24 12:51:00,
2013-05-24 08:52:00,62.9,61.8,29.68,WSW,257,0.0,0.0,96,0.00,,SKC,0.35,VWS V14.01,2013-05-24 12:52:00,
2013-05-24 08:55:00,62.9,61.8,29.68,ESE,121,0.0,0.0,96,0.00,,SKC,0.35,VWS V14.01,2013-05-24 12:55:00,
2013-05-24 08:56:00,62.9,61.8,29.68,ESE,123,0.0,0.0,96,0.00,,SKC,0.35,VWS V14.01,2013-05-24 12:56:00,
2013-05-24 08:57:00,62.9,61.8,29.68,ESE,121,0.0,0.0,96,0.00,,SKC,0.35,VWS V14.01,2013-05-24 12:57:00,
2013-05-24 09:00:00,63.5,62.3,29.65,WSW,248,0.0,0.0,96,0.00,,SKC,0.35,VWS V14.01,2013-05-24 13:00:00,
2013-05-24 09:01:00,62.7,61.5,29.68,SE,127,0.0,0.0,96,0.00,,SKC,0.35,VWS V14.01,2013-05-24 13:01:00,
2013-05-24 09:02:00,62.7,61.5,29.68,ESE,116,0.0,0.0,96,0.00,,SKC,0.35,VWS V14.01,2013-05-24 13:02:00,
2013-05-24 09:03:00,62.7,61.5,29.68,SE,126,0.0,0.0,96,0.00,,SKC,0.35,VWS V14.01,2013-05-24 13:03:00,
2013-05-24 09:05:00,63.5,62.3,29.65,WSW,250,0.0,0.0,96,0.00,,SKC,0.35,VWS V14.01,2013-05-24 13:05:00,
2013-05-24 09:06:00,62.6,61.5,29.68,ESE,123,0.0,0.0,96,0.00,,SKC,0.35,VWS V14.01,2013-05-24 13:06:00,
2013-05-24 09:07:00,62.6,61.5,29.68,ESE,123,0.0,0.0,96,0.00,,SKC,0.35,VWS V14.01,2013-05-24 13:07:00,
2013-05-24 09:08:00,62.6,61.5,29.68,ESE,121,0.0,0.0,96,0.00,,SKC,0.35,VWS V14.01,2013-05-24 13:08:00,
2013-05-24 09:10:00,63.5,62.3,29.65,West,260,0.0,0.0,96,0.00,,SKC,0.35,VWS V14.01,2013-05-24 13:10:00,
2013-05-24 09:11:00,62.6,61.5,29.68,SE,127,0.0,0.0,96,0.00,,SKC,0.35,VWS V14.01,2013-05-24 13:11:00,
2013-05-24 09:12:00,62.6,61.5,29.68,SE,127,0.0,0.0,96,0.00,,SKC,0.35,VWS V14.01,2013-05-24 13:12:00,
2013-05-24 09:13:00,62.6,61.5,29.68,SE,127,0.0,0.0,96,0.00,,SKC,0.35,VWS V14.01,2013-05-24 13:13:00,
2013-05-24 09:14:00,62.6,61.5,29.68,SE,127,0.0,0.0,96,0.00,,SKC,0.35,VWS V14.01,2013-05-24 13:14:00,
2013-05-24 09:15:00,63.5,62.3,29.66,WSW,257,0.0,0.0,96,0.00,,SKC,0.35,VWS V14.01,2013-05-24 13:15:00,
2013-05-24 09:16:00,62.6,61.5,29.68,SSW,200,0.0,0.0,96,0.00,,SKC,0.35,VWS V14.01,2013-05-24 13:16:00,
2013-05-24 09:17:00,62.6,61.5,29.68,SSW,200,0.0,0.0,96,0.00,,SKC,0.35,VWS V14.01,2013-05-24 13:17:00,
2013-05-24 09:18:00,62.6,61.5,29.68,SSW,202,0.0,0.0,96,0.00,,SKC,0.35,VWS V14.01,2013-05-24 13:18:00,
2013-05-24 09:19:00,62.6,61.5,29.68,SSW,202,0.0,0.0,96,0.00,,SKC,0.35,VWS V14.01,2013-05-24 13:19:00,
2013-05-24 09:20:00,63.1,61.9,29.66,WSW,258,0.0,0.0,96,0.00,,SKC,0.35,VWS V14.01,2013-05-24 13:20:00,
2013-05-24 09:21:00,62.6,61.5,29.68,SSW,202,0.0,0.0,96,0.00,,SKC,0.35,VWS V14.01,2013-05-24 13:21:00,
2013-05-24 09:23:00,62.6,61.5,29.68,SSW,202,0.0,0.0,96,0.00,,SKC,0.35,VWS V14.01,2013-05-24 13:23:00,
2013-05-24 09:24:00,62.6,61.5,29.68,SSW,202,0.0,0.0,96,0.00,,SKC,0.35,VWS V14.01,2013-05-24 13:24:00,
2013-05-24 09:25:00,62.6,61.5,29.68,SSW,202,0.0,0.0,96,0.00,,SKC,0.35,VWS V14.01,2013-05-24 13:25:00,
2013-05-24 09:27:00,62.6,61.5,29.68,SSW,202,0.0,0.0,96,0.00,,SKC,0.35,VWS V14.01,2013-05-24 13:27:00,
2013-05-24 09:28:00,62.6,61.5,29.68,SSW,202,0.0,0.0,96,0.00,,SKC,0.35,VWS V14.01,2013-05-24 13:28:00,
2013-05-24 09:29:00,62.6,61.5,29.68,SSW,202,0.0,0.0,96,0.00,,SKC,0.35,VWS V14.01,2013-05-24 13:29:00,
2013-05-24 09:30:00,62.6,61.5,29.68,SSW,202,0.0,0.0,96,0.00,,SKC,0.35,VWS V14.01,2013-05-24 13:30:00,
2013-05-24 09:32:00,62.6,61.5,29.68,SSW,202,0.0,0.0,96,0.00,,SKC,0.35,VWS V14.01,2013-05-24 13:32:00,
2013-05-24 09:33:00,62.6,61.5,29.68,SSW,202,0.0,0.0,96,0.00,,SKC,0.35,VWS V14.01,2013-05-24 13:33:00,
2013-05-24 09:34:00,62.6,61.5,29.68,SSW,202,0.0,0.0,96,0.00,,SKC,0.35,VWS V14.01,2013-05-24 13:34:00,
2013-05-24 09:35:00,62.6,61.5,29.68,SSW,202,0.0,0.0,96,0.00,,SKC,0.35,VWS V14.01,2013-05-24 13:35:00,
2013-05-24 09:38:00,62.6,61.5,29.68,SSW,202,0.0,0.0,96,0.00,,SKC,0.35,VWS V14.01,2013-05-24 13:38:00,
2013-05-24 09:39:00,62.6,61.5,29.68,SSW,202,0.0,0.0,96,0.00,,SKC,0.35,VWS V14.01,2013-05-24 13:39:00,
2013-05-24 09:40:00,62.6,61.5,29.68,SSW,202,0.0,0.0,96,0.00,,SKC,0.35,VWS V14.01,2013-05-24 13:40:00,
2013-05-24 09:43:00,62.6,61.5,29.68,SSW,202,0.0,0.0,96,0.00,,SKC,0.35,VWS V14.01,2013-05-24 13:43:00,
2013-05-24 09:44:00,62.4,61.2,29.69,SSW,200,0.0,0.0,96,0.00,,SKC,0.35,VWS V14.01,2013-05-24 13:44:00,
2013-05-24 09:45:00,62.4,61.2,29.69,SSW,209,0.0,0.0,96,0.00,,SKC,0.35,VWS V14.01,2013-05-24 13:45:00,
2013-05-24 09:46:00,62.4,61.2,29.69,SSW,212,0.0,0.0,96,0.00,,SKC,0.35,VWS V14.01,2013-05-24 13:46:00,
2013-05-24 09:49:00,62.4,61.2,29.69,SSW,210,0.0,0.0,96,0.00,,SKC,0.35,VWS V14.01,2013-05-24 13:49:00,
2013-05-24 09:50:00,62.3,61.2,29.69,SSW,209,0.0,0.0,96,0.00,,SKC,0.35,VWS V14.01,2013-05-24 13:50:00,
2013-05-24 09:51:00,62.3,61.2,29.69,SSW,208,0.0,0.0,96,0.00,,SKC,0.35,VWS V14.01,2013-05-24 13:51:00,
2013-05-24 09:55:00,62.3,61.2,29.69,SSW,209,0.0,0.0,96,0.00,,SKC,0.35,VWS V14.01,2013-05-24 13:55:00,
2013-05-24 09:56:00,62.3,61.2,29.69,SSW,208,0.0,0.0,96,0.00,,SKC,0.35,VWS V14.01,2013-05-24 13:56:00,
2013-05-24 09:57:00,62.3,61.2,29.69,SSW,209,0.0,0.0,96,0.00,,SKC,0.35,VWS V14.01,2013-05-24 13:57:00,
2013-05-24 10:00:00,62.3,61.2,29.69,SSW,209,0.0,0.0,96,0.00,,SKC,0.35,VWS V14.01,2013-05-24 14:00:00,
2013-05-24 10:01:00,62.3,61.2,29.69,SSW,210,0.0,0.0,96,0.00,,SKC,0.35,VWS V14.01,2013-05-24 14:01:00,
2013-05-24 10:02:00,62.4,61.2,29.69,SSW,209,0.0,0.0,96,0.00,,SKC,0.35,VWS V14.01,2013-05-24 14:02:00,
2013-05-24 10:05:00,62.4,61.2,29.69,SSW,209,0.0,0.0,96,0.00,,SKC,0.35,VWS V14.01,2013-05-24 14:05:00,
2013-05-24 10:06:00,62.4,61.2,29.69,SSW,209,0.0,0.0,96,0.00,,SKC,0.35,VWS V14.01,2013-05-24 14:06:00,
2013-05-24 10:07:00,62.4,61.2,29.69,SSW,208,0.0,0.0,96,0.00,,SKC,0.35,VWS V14.01,2013-05-24 14:07:00,
2013-05-24 10:10:00,62.4,61.2,29.69,SSW,209,0.0,0.0,96,0.00,,SKC,0.35,VWS V14.01,2013-05-24 14:10:00,
2013-05-24 10:11:00,62.4,61.2,29.69,SSW,213,0.0,0.0,96,0.00,,SKC,0.35,VWS V14.01,2013-05-24 14:11:00,
2013-05-24 10:12:00,62.4,61.2,29.69,SSW,208,0.0,0.0,96,0.00,,SKC,0.35,VWS V14.01,2013-05-24 14:12:00,
2013-05-24 10:13:00,62.4,61.2,29.69,SSW,208,0.0,0.0,96,0.00,,SKC,0.35,VWS V14.01,2013-05-24 14:13:00,
2013-05-24 10:15:00,62.4,61.2,29.69,SSW,209,0.0,0.0,96,0.00,,SKC,0.35,VWS V14.01,2013-05-24 14:15:00,
2013-05-24 10:16:00,62.4,61.2,29.69,SSW,209,0.0,0.0,96,0.00,,SKC,0.35,VWS V14.01,2013-05-24 14:16:00,
2013-05-24 10:17:00,62.4,61.2,29.69,SSW,199,0.0,0.0,96,0.00,,SKC,0.35,VWS V14.01,2013-05-24 14:17:00,
2013-05-24 10:18:00,62.4,61.2,29.69,SSW,199,0.0,0.0,96,0.00,,SKC,0.35,VWS V14.01,2013-05-24 14:18:00,
2013-05-24 10:19:00,62.4,61.2,29.69,SSW,202,0.0,0.0,96,0.00,,SKC,0.35,VWS V14.01,2013-05-24 14:19:00,
2013-05-24 10:20:00,62.6,61.5,29.68,SSW,202,0.0,0.0,96,0.00,,SKC,0.35,VWS V14.01,2013-05-24 14:20:00,
2013-05-24 10:21:00,62.4,61.2,29.69,SSW,202,0.0,0.0,96,0.00,,SKC,0.35,VWS V14.01,2013-05-24 14:21:00,
2013-05-24 10:22:00,62.4,61.2,29.69,SSW,202,0.0,0.0,96,0.00,,SKC,0.35,VWS V14.01,2013-05-24 14:22:00,
2013-05-24 10:23:00,62.4,61.2,29.69,SSW,202,0.0,0.0,96,0.00,,SKC,0.35,VWS V14.01,2013-05-24 14:23:00,
2013-05-24 10:24:00,62.4,61.2,29.69,SSW,202,0.0,0.0,96,0.00,,SKC,0.35,VWS V14.01,2013-05-24 14:24:00,
2013-05-24 10:25:00,62.6,61.5,29.68,SSW,202,0.0,0.0,96,0.00,,SKC,0.35,VWS V14.01,2013-05-24 14:25:00,
2013-05-24 10:26:00,62.4,61.2,29.69,SSW,202,0.0,0.0,96,0.00,,SKC,0.35,VWS V14.01,2013-05-24 14:26:00,
2013-05-24 10:27:00,62.4,61.2,29.69,SSW,202,0.0,0.0,96,0.00,,SKC,0.35,VWS V14.01,2013-05-24 14:27:00,
2013-05-24 10:28:00,62.4,61.2,29.69,SSW,202,0.0,0.0,96,0.00,,SKC,0.35,VWS V14.01,2013-05-24 14:28:00,
2013-05-24 10:29:00,62.4,61.2,29.69,SSW,202,0.0,0.0,96,0.00,,SKC,0.35,VWS V14.01,2013-05-24 14:29:00,
2013-05-24 10:30:00,62.6,61.5,29.68,SSW,202,0.0,0.0,96,0.00,,SKC,0.35,VWS V14.01,2013-05-24 14:30:00,
2013-05-24 10:32:00,62.4,61.2,29.69,SSW,202,0.0,0.0,96,0.00,,SKC,0.35,VWS V14.01,2013-05-24 14:32:00,
2013-05-24 10:33:00,62.4,61.2,29.69,SSW,202,0.0,0.0,96,0.00,,SKC,0.35,VWS V14.01,2013-05-24 14:33:00,
2013-05-24 10:35:00,62.4,61.2,29.69,SSW,202,0.0,0.0,96,0.00,,SKC,0.35,VWS V14.01,2013-05-24 14:35:00,
2013-05-24 10:37:00,62.4,61.2,29.69,SSW,202,0.0,0.0,96,0.00,,SKC,0.35,VWS V14.01,2013-05-24 14:37:00,
2013-05-24 10:38:00,62.4,61.2,29.69,SSW,202,0.0,0.0,96,0.00,,SKC,0.35,VWS V14.01,2013-05-24 14:38:00,
2013-05-24 10:39:00,62.4,61.2,29.69,SSW,202,0.0,0.0,96,0.00,,SKC,0.35,VWS V14.01,2013-05-24 14:39:00,
2013-05-24 10:40:00,62.4,61.2,29.69,SSW,202,0.0,0.0,96,0.00,,SKC,0.35,VWS V14.01,2013-05-24 14:40:00,
2013-05-24 10:43:00,62.4,61.2,29.69,SSW,202,0.0,0.0,96,0.00,,SKC,0.35,VWS V14.01,2013-05-24 14:43:00,
2013-05-24 10:44:00,62.4,61.2,29.69,SSW,202,0.0,0.0,96,0.00,,SKC,0.35,VWS V14.01,2013-05-24 14:44:00,
2013-05-24 10:45:00,63.1,61.9,29.69,SSW,203,0.0,0.0,96,0.00,,SKC,0.35,VWS V14.01,2013-05-24 14:45:00,
2013-05-24 10:48:00,63.1,61.9,29.69,SSW,208,0.0,0.0,96,0.00,,SKC,0.35,VWS V14.01,2013-05-24 14:48:00,
2013-05-24 10:49:00,63.1,61.9,29.69,SSW,203,0.0,0.0,96,0.00,,SKC,0.35,VWS V14.01,2013-05-24 14:49:00,
2013-05-24 10:50:00,63.1,61.9,29.69,SSW,205,0.0,0.0,96,0.00,,SKC,0.35,VWS V14.01,2013-05-24 14:50:00,
2013-05-24 10:53:00,63.1,61.9,29.69,SSW,205,0.0,0.0,96,0.00,,SKC,0.35,VWS V14.01,2013-05-24 14:53:00,
2013-05-24 10:54:00,63.1,61.9,29.69,SSW,203,0.0,0.0,96,0.00,,SKC,0.35,VWS V14.01,2013-05-24 14:54:00,
2013-05-24 10:55:00,63.1,61.9,29.69,SSW,203,0.0,0.0,96,0.00,,SKC,0.35,VWS V14.01,2013-05-24 14:55:00,
2013-05-24 10:58:00,63.1,61.9,29.69,SSW,203,0.0,0.0,96,0.00,,SKC,0.35,VWS V14.01,2013-05-24 14:58:00,
2013-05-24 10:59:00,63.1,61.9,29.69,SSW,203,0.0,0.0,96,0.00,,SKC,0.35,VWS V14.01,2013-05-24 14:59:00,
2013-05-24 11:00:00,63.1,61.9,29.69,SSW,213,0.0,0.0,96,0.00,,SKC,0.35,VWS V14.01,2013-05-24 15:00:00,
2013-05-24 11:01:00,63.1,61.9,29.69,SSW,209,0.0,0.0,96,0.00,,SKC,0.35,VWS V14.01,2013-05-24 15:01:00,
2013-05-24 11:04:00,63.2,62.0,29.69,SW,219,0.0,0.0,96,0.00,,SKC,0.35,VWS V14.01,2013-05-24 15:04:00,
2013-05-24 11:05:00,63.2,62.0,29.69,SW,219,0.0,0.0,96,0.00,,SKC,0.35,VWS V14.01,2013-05-24 15:05:00,
2013-05-24 11:06:00,63.2,62.0,29.69,SW,220,0.0,0.0,96,0.00,,SKC,0.35,VWS V14.01,2013-05-24 15:06:00,
2013-05-24 11:09:00,63.4,62.2,29.69,SW,219,0.0,0.0,96,0.00,,SKC,0.35,VWS V14.01,2013-05-24 15:09:00,
2013-05-24 11:10:00,63.4,62.2,29.69,SW,216,0.0,0.0,96,0.00,,SKC,0.35,VWS V14.01,2013-05-24 15:10:00,
2013-05-24 11:11:00,63.4,62.2,29.69,SSW,210,0.0,0.0,96,0.00,,SKC,0.35,VWS V14.01,2013-05-24 15:11:00,
2013-05-24 11:12:00,63.4,62.2,29.69,SW,219,0.0,0.0,96,0.00,,SKC,0.35,VWS V14.01,2013-05-24 15:12:00,
2013-05-24 11:14:00,63.4,62.2,29.68,SW,219,0.0,0.0,96,0.00,,SKC,0.35,VWS V14.01,2013-05-24 15:14:00,
2013-05-24 11:15:00,63.4,62.2,29.68,SW,219,0.0,0.0,96,0.00,,SKC,0.35,VWS V14.01,2013-05-24 15:15:00,
2013-05-24 11:16:00,63.4,62.2,29.68,SW,219,0.0,0.0,96,0.00,,SKC,0.35,VWS V14.01,2013-05-24 15:16:00,
2013-05-24 11:17:00,63.4,62.2,29.68,SW,215,0.0,0.0,96,0.00,,SKC,0.35,VWS V14.01,2013-05-24 15:17:00,
2013-05-24 11:20:00,63.4,62.2,29.68,SW,215,0.0,0.0,96,0.00,,SKC,0.35,VWS V14.01,2013-05-24 15:20:00,
2013-05-24 11:21:00,63.4,62.2,29.68,SSW,210,0.0,0.0,96,0.00,,SKC,0.35,VWS V14.01,2013-05-24 15:21:00,
2013-05-24 11:22:00,63.5,62.3,29.68,SSW,209,0.0,0.0,96,0.00,,SKC,0.35,VWS V14.01,2013-05-24 15:22:00,
2013-05-24 11:25:00,63.7,62.5,29.68,SSW,210,0.0,0.0,96,0.00,,SKC,0.35,VWS V14.01,2013-05-24 15:25:00,
2013-05-24 11:27:00,63.9,62.7,29.68,SSW,212,0.0,0.0,96,0.00,,SKC,0.35,VWS V14.01,2013-05-24 15:27:00,
2013-05-24 11:30:00,63.9,62.7,29.69,SSW,209,0.0,0.0,96,0.01,,SKC,0.36,VWS V14.01,2013-05-24 15:30:00,
2013-05-24 11:31:00,64.0,62.8,29.69,SSW,205,0.0,0.0,96,0.01,,SKC,0.36,VWS V14.01,2013-05-24 15:31:00,
2013-05-24 11:32:00,64.0,62.8,29.69,SSW,212,0.0,0.0,96,0.01,,SKC,0.36,VWS V14.01,2013-05-24 15:32:00,
2013-05-24 11:33:00,64.0,62.8,29.69,SSW,203,0.0,0.0,96,0.01,,SKC,0.36,VWS V14.01,2013-05-24 15:33:00,
2013-05-24 11:35:00,64.0,62.8,29.69,SSW,193,0.0,0.0,96,0.01,,SKC,0.36,VWS V14.01,2013-05-24 15:35:00,
2013-05-24 11:36:00,64.0,62.8,29.69,SSW,208,0.0,0.0,96,0.01,,SKC,0.36,VWS V14.01,2013-05-24 15:36:00,
2013-05-24 11:37:00,64.2,63.0,29.69,SSW,205,0.0,0.0,96,0.01,,SKC,0.36,VWS V14.01,2013-05-24 15:37:00,
2013-05-24 11:38:00,64.2,63.0,29.69,SSW,208,0.0,0.0,96,0.01,,SKC,0.36,VWS V14.01,2013-05-24 15:38:00,
2013-05-24 11:40:00,62.4,61.2,29.69,SSW,202,0.0,0.0,96,0.00,,SKC,0.35,VWS V14.01,2013-05-24 15:40:00,
2013-05-24 11:41:00,64.0,62.8,29.69,SSW,212,0.0,0.0,96,0.01,,SKC,0.36,VWS V14.01,2013-05-24 15:41:00,
2013-05-24 11:43:00,63.9,62.7,29.69,SSW,208,0.0,1.0,96,0.01,,SKC,0.36,VWS V14.01,2013-05-24 15:43:00,
2013-05-24 11:45:00,62.4,61.2,29.69,SSW,202,0.0,0.0,96,0.00,,SKC,0.35,VWS V14.01,2013-05-24 15:45:00,
2013-05-24 11:46:00,63.9,63.0,29.68,SSW,203,0.0,0.0,97,0.01,,SKC,0.36,VWS V14.01,2013-05-24 15:46:00,
2013-05-24 11:48:00,63.9,62.7,29.68,SSW,203,0.0,0.0,96,0.01,,SKC,0.36,VWS V14.01,2013-05-24 15:48:00,
2013-05-24 11:49:00,63.9,62.7,29.68,SSW,200,0.0,0.0,96,0.01,,SKC,0.36,VWS V14.01,2013-05-24 15:49:00,
2013-05-24 11:50:00,63.1,61.9,29.69,SSW,208,0.0,0.0,96,0.00,,SKC,0.35,VWS V14.01,2013-05-24 15:50:00,
2013-05-24 11:52:00,64.0,62.8,29.68,SSW,200,0.0,0.0,96,0.01,,SKC,0.36,VWS V14.01,2013-05-24 15:52:00,
2013-05-24 11:54:00,63.9,62.7,29.68,SSW,202,0.0,0.0,96,0.01,,SKC,0.36,VWS V14.01,2013-05-24 15:54:00,
2013-05-24 11:55:00,63.9,62.7,29.68,SSW,203,0.0,0.0,96,0.01,,SKC,0.36,VWS V14.01,2013-05-24 15:55:00,
2013-05-24 11:57:00,63.9,62.7,29.68,SSW,205,0.0,0.0,96,0.01,,SKC,0.36,VWS V14.01,2013-05-24 15:57:00,
2013-05-24 12:00:00,63.9,62.7,29.68,SSW,203,0.0,0.0,96,0.01,,SKC,0.36,VWS V14.01,2013-05-24 16:00:00,
2013-05-24 12:01:00,63.9,62.7,29.68,SSW,202,0.0,0.0,96,0.01,,SKC,0.36,VWS V14.01,2013-05-24 16:01:00,
2013-05-24 12:02:00,63.9,62.7,29.68,SSW,205,0.0,0.0,96,0.01,,SKC,0.36,VWS V14.01,2013-05-24 16:02:00,
2013-05-24 12:05:00,63.2,62.0,29.69,SSW,213,0.0,0.0,96,0.00,,SKC,0.35,VWS V14.01,2013-05-24 16:05:00,
2013-05-24 12:06:00,63.9,62.7,29.68,SSW,205,0.0,0.0,96,0.01,,SKC,0.36,VWS V14.01,2013-05-24 16:06:00,
2013-05-24 12:07:00,63.7,62.5,29.68,SW,216,0.0,0.0,96,0.01,,SKC,0.36,VWS V14.01,2013-05-24 16:07:00,
2013-05-24 12:08:00,63.7,62.5,29.68,SSW,208,0.0,0.0,96,0.01,,SKC,0.36,VWS V14.01,2013-05-24 16:08:00,
2013-05-24 12:10:00,63.4,62.2,29.69,SW,216,0.0,0.0,96,0.00,,SKC,0.35,VWS V14.01,2013-05-24 16:10:00,
2013-05-24 12:11:00,63.7,62.5,29.68,SSW,210,0.0,0.0,96,0.01,,SKC,0.36,VWS V14.01,2013-05-24 16:11:00,
2013-05-24 12:12:00,63.9,62.7,29.68,SSW,212,0.0,0.0,96,0.01,,SKC,0.36,VWS V14.01,2013-05-24 16:12:00,
2013-05-24 12:13:00,63.9,62.7,29.68,SSW,210,0.0,0.0,96,0.01,,SKC,0.36,VWS V14.01,2013-05-24 16:13:00,
2013-05-24 12:15:00,63.4,62.2,29.68,SW,219,0.0,0.0,96,0.00,,SKC,0.35,VWS V14.01,2013-05-24 16:15:00,
2013-05-24 12:17:00,64.2,63.0,29.68,SW,215,0.0,0.0,96,0.01,,SKC,0.36,VWS V14.01,2013-05-24 16:17:00,
2013-05-24 12:18:00,64.2,63.0,29.68,SSW,209,0.0,0.0,96,0.01,,SKC,0.36,VWS V14.01,2013-05-24 16:18:00,
2013-05-24 12:20:00,63.4,62.2,29.68,SW,215,0.0,0.0,96,0.00,,SKC,0.35,VWS V14.01,2013-05-24 16:20:00,
2013-05-24 12:22:00,64.3,63.1,29.68,SW,215,0.0,0.0,96,0.02,,SKC,0.37,VWS V14.01,2013-05-24 16:22:00,
2013-05-24 12:23:00,64.3,63.1,29.68,SSW,212,0.0,0.0,96,0.02,,SKC,0.37,VWS V14.01,2013-05-24 16:23:00,
2013-05-24 12:24:00,64.5,63.3,29.68,SW,219,0.0,0.0,96,0.02,,SKC,0.37,VWS V14.01,2013-05-24 16:24:00,
2013-05-24 12:25:00,63.7,62.5,29.68,SSW,210,0.0,0.0,96,0.00,,SKC,0.35,VWS V14.01,2013-05-24 16:25:00,
2013-05-24 12:28:00,64.7,63.5,29.68,SSW,212,0.0,0.0,96,0.02,,SKC,0.37,VWS V14.01,2013-05-24 16:28:00,
2013-05-24 12:29:00,64.7,63.5,29.68,SSW,213,0.0,0.0,96,0.02,,SKC,0.37,VWS V14.01,2013-05-24 16:29:00,
2013-05-24 12:30:00,63.9,62.7,29.69,SSW,210,0.0,0.0,96,0.01,,SKC,0.36,VWS V14.01,2013-05-24 16:30:00,
2013-05-24 12:33:00,64.5,63.3,29.68,SSW,210,0.0,0.0,96,0.01,,SKC,0.37,VWS V14.01,2013-05-24 16:33:00,
2013-05-24 12:34:00,64.5,63.3,29.68,SSW,213,0.0,0.0,96,0.01,,SKC,0.37,VWS V14.01,2013-05-24 16:34:00,
2013-05-24 12:35:00,64.0,62.8,29.69,SSW,205,0.0,0.0,96,0.01,,SKC,0.36,VWS V14.01,2013-05-24 16:35:00,
2013-05-24 12:38:00,64.5,63.3,29.68,SW,215,0.0,0.0,96,0.01,,SKC,0.37,VWS V14.01,2013-05-24 16:38:00,
2013-05-24 12:40:00,64.7,63.5,29.68,SW,216,0.0,0.0,96,0.01,,SKC,0.37,VWS V14.01,2013-05-24 16:40:00,
2013-05-24 12:43:00,64.7,63.5,29.68,SW,215,0.0,0.0,96,0.01,,SKC,0.37,VWS V14.01,2013-05-24 16:43:00,
2013-05-24 12:44:00,64.7,63.5,29.68,SW,215,0.0,0.0,96,0.01,,SKC,0.37,VWS V14.01,2013-05-24 16:44:00,
2013-05-24 12:45:00,64.7,63.5,29.68,SW,215,0.0,0.0,96,0.01,,SKC,0.37,VWS V14.01,2013-05-24 16:45:00,
2013-05-24 12:49:00,64.5,63.3,29.68,SSW,206,0.0,0.0,96,0.01,,SKC,0.37,VWS V14.01,2013-05-24 16:49:00,
2013-05-24 12:50:00,64.5,63.3,29.68,SSW,206,0.0,0.0,96,0.01,,SKC,0.37,VWS V14.01,2013-05-24 16:50:00,
2013-05-24 12:51:00,64.7,63.5,29.68,SSW,205,0.0,0.0,96,0.01,,SKC,0.37,VWS V14.01,2013-05-24 16:51:00,
2013-05-24 12:54:00,64.7,63.5,29.68,SSW,208,0.0,0.0,96,0.01,,SKC,0.37,VWS V14.01,2013-05-24 16:54:00,
2013-05-24 12:55:00,64.7,63.5,29.68,SSW,205,0.0,0.0,96,0.01,,SKC,0.37,VWS V14.01,2013-05-24 16:55:00,
2013-05-24 12:56:00,64.7,63.5,29.68,SSW,206,0.0,0.0,96,0.01,,SKC,0.37,VWS V14.01,2013-05-24 16:56:00,
2013-05-24 13:00:00,64.7,63.5,29.68,SSW,213,0.0,0.0,96,0.01,,SKC,0.37,VWS V14.01,2013-05-24 17:00:00,
2013-05-24 13:01:00,64.7,63.5,29.68,SSW,212,0.0,0.0,96,0.01,,SKC,0.37,VWS V14.01,2013-05-24 17:01:00,
2013-05-24 13:05:00,65.0,63.8,29.68,SSW,213,0.0,0.0,96,0.01,,SKC,0.37,VWS V14.01,2013-05-24 17:05:00,
2013-05-24 13:06:00,65.2,64.0,29.68,SSW,209,0.0,0.0,96,0.01,,SKC,0.37,VWS V14.01,2013-05-24 17:06:00,
2013-05-24 13:07:00,65.2,64.0,29.68,SSW,208,0.0,0.0,96,0.01,,SKC,0.37,VWS V14.01,2013-05-24 17:07:00,
2013-05-24 13:10:00,65.2,64.0,29.68,SSW,202,0.0,0.0,96,0.01,,SKC,0.37,VWS V14.01,2013-05-24 17:10:00,
2013-05-24 13:11:00,65.3,64.1,29.68,SSW,203,0.0,0.0,96,0.01,,SKC,0.37,VWS V14.01,2013-05-24 17:11:00,
2013-05-24 13:12:00,65.3,64.1,29.68,SSW,202,0.0,0.0,96,0.01,,SKC,0.37,VWS V14.01,2013-05-24 17:12:00,
2013-05-24 13:13:00,65.3,64.1,29.68,SSW,206,0.0,0.0,96,0.01,,SKC,0.37,VWS V14.01,2013-05-24 17:13:00,
2013-05-24 13:15:00,65.5,64.3,29.68,SSW,212,0.0,0.0,96,0.01,,SKC,0.37,VWS V14.01,2013-05-24 17:15:00,
2013-05-24 13:16:00,65.5,64.3,29.68,SSW,209,0.0,0.0,96,0.01,,SKC,0.37,VWS V14.01,2013-05-24 17:16:00,
2013-05-24 13:17:00,65.5,64.3,29.68,SSW,206,0.0,0.0,96,0.01,,SKC,0.37,VWS V14.01,2013-05-24 17:17:00,
2013-05-24 13:18:00,65.5,64.3,29.68,SSW,210,0.0,0.0,96,0.01,,SKC,0.37,VWS V14.01,2013-05-24 17:18:00,
2013-05-24 13:20:00,64.3,63.1,29.68,SSW,208,0.0,0.0,96,0.01,,SKC,0.36,VWS V14.01,2013-05-24 17:20:00,
2013-05-24 13:21:00,65.6,64.4,29.68,SSW,209,0.0,0.0,96,0.01,,SKC,0.37,VWS V14.01,2013-05-24 17:21:00,
2013-05-24 13:22:00,65.6,64.4,29.68,SSW,210,0.0,0.0,96,0.01,,SKC,0.37,VWS V14.01,2013-05-24 17:22:00,
2013-05-24 13:23:00,65.6,64.4,29.68,SW,230,0.0,0.0,96,0.01,,SKC,0.37,VWS V14.01,2013-05-24 17:23:00,
2013-05-24 13:24:00,65.6,64.4,29.68,SW,230,0.0,0.0,96,0.01,,SKC,0.37,VWS V14.01,2013-05-24 17:24:00,
2013-05-24 13:25:00,64.5,63.3,29.68,SSW,213,0.0,0.0,96,0.02,,SKC,0.37,VWS V14.01,2013-05-24 17:25:00,
2013-05-24 13:26:00,65.5,64.3,29.68,SW,220,0.0,0.0,96,0.00,,SKC,0.37,VWS V14.01,2013-05-24 17:26:00,
2013-05-24 13:27:00,65.5,64.3,29.68,SSW,210,0.0,0.0,96,0.00,,SKC,0.37,VWS V14.01,2013-05-24 17:27:00,
2013-05-24 13:28:00,65.5,64.3,29.68,SSW,210,0.0,0.0,96,0.00,,SKC,0.37,VWS V14.01,2013-05-24 17:28:00,
2013-05-24 13:29:00,65.3,64.1,29.68,SW,216,0.0,0.0,96,0.00,,SKC,0.37,VWS V14.01,2013-05-24 17:29:00,
2013-05-24 13:30:00,64.7,63.5,29.68,SSW,213,0.0,0.0,96,0.02,,SKC,0.37,VWS V14.01,2013-05-24 17:30:00,
2013-05-24 13:32:00,65.3,64.1,29.68,SSW,210,0.0,0.0,96,0.00,,SKC,0.37,VWS V14.01,2013-05-24 17:32:00,
2013-05-24 13:33:00,65.2,64.0,29.68,SW,217,0.0,0.0,96,0.00,,SKC,0.37,VWS V14.01,2013-05-24 17:33:00,
2013-05-24 13:34:00,65.2,64.0,29.68,SSW,212,0.0,0.0,96,0.00,,SKC,0.37,VWS V14.01,2013-05-24 17:34:00,
2013-05-24 13:35:00,65.2,64.0,29.68,SW,215,0.0,0.0,96,0.00,,SKC,0.37,VWS V14.01,2013-05-24 17:35:00,
2013-05-24 13:38:00,65.2,64.0,29.68,SSW,212,0.0,0.0,96,0.00,,SKC,0.37,VWS V14.01,2013-05-24 17:38:00,
2013-05-24 13:39:00,65.2,64.0,29.68,SSW,210,0.0,0.0,96,0.00,,SKC,0.37,VWS V14.01,2013-05-24 17:39:00,
2013-05-24 13:40:00,65.2,64.0,29.68,SSW,212,0.0,0.0,96,0.00,,SKC,0.37,VWS V14.01,2013-05-24 17:40:00,
2013-05-24 13:43:00,65.2,64.0,29.68,SSW,209,0.0,0.0,96,0.00,,SKC,0.37,VWS V14.01,2013-05-24 17:43:00,
2013-05-24 13:44:00,65.2,64.0,29.68,SSW,209,0.0,0.0,96,0.00,,SKC,0.37,VWS V14.01,2013-05-24 17:44:00,
2013-05-24 13:45:00,65.2,64.0,29.67,SSW,209,0.0,0.0,96,0.00,,SKC,0.37,VWS V14.01,2013-05-24 17:45:00,
2013-05-24 13:49:00,64.8,63.6,29.67,SSW,198,0.0,0.0,96,0.00,,SKC,0.37,VWS V14.01,2013-05-24 17:49:00,
2013-05-24 13:50:00,64.5,63.3,29.68,SSW,205,0.0,0.0,96,0.01,,SKC,0.37,VWS V14.01,2013-05-24 17:50:00,
2013-05-24 13:51:00,65.0,63.8,29.67,SSW,199,0.0,0.0,96,0.00,,SKC,0.37,VWS V14.01,2013-05-24 17:51:00,
2013-05-24 13:52:00,65.0,63.8,29.67,SSW,196,0.0,0.0,96,0.00,,SKC,0.37,VWS V14.01,2013-05-24 17:52:00,
2013-05-24 13:54:00,65.0,63.8,29.67,SSW,196,0.0,0.0,96,0.00,,SKC,0.37,VWS V14.01,2013-05-24 17:54:00,
2013-05-24 13:55:00,65.0,63.8,29.67,SSW,196,0.0,0.0,96,0.00,,SKC,0.37,VWS V14.01,2013-05-24 17:55:00,
2013-05-24 13:56:00,65.0,63.8,29.67,SSW,196,0.0,0.0,96,0.00,,SKC,0.37,VWS V14.01,2013-05-24 17:56:00,
2013-05-24 13:57:00,65.2,64.0,29.67,SSW,202,0.0,0.0,96,0.00,,SKC,0.37,VWS V14.01,2013-05-24 17:57:00,
2013-05-24 13:59:00,65.2,64.0,29.67,SSW,198,0.0,0.0,96,0.00,,SKC,0.37,VWS V14.01,2013-05-24 17:59:00,
2013-05-24 14:00:00,64.7,63.5,29.68,SSW,213,0.0,0.0,96,0.01,,SKC,0.37,VWS V14.01,2013-05-24 18:00:00,
2013-05-24 14:01:00,65.2,64.0,29.67,SSW,198,0.0,0.0,96,0.00,,SKC,0.37,VWS V14.01,2013-05-24 18:01:00,
2013-05-24 14:02:00,65.2,64.0,29.67,SSW,198,0.0,0.0,96,0.00,,SKC,0.37,VWS V14.01,2013-05-24 18:02:00,
2013-05-24 14:03:00,65.2,64.0,29.67,SSW,200,0.0,0.0,96,0.00,,SKC,0.37,VWS V14.01,2013-05-24 18:03:00,
2013-05-24 14:04:00,65.2,64.0,29.67,SSW,200,0.0,0.0,96,0.00,,SKC,0.37,VWS V14.01,2013-05-24 18:04:00,
2013-05-24 14:05:00,65.0,63.8,29.68,SSW,210,0.0,0.0,96,0.01,,SKC,0.37,VWS V14.01,2013-05-24 18:05:00,
2013-05-24 14:06:00,65.2,64.0,29.67,SSW,200,0.0,0.0,96,0.00,,SKC,0.37,VWS V14.01,2013-05-24 18:06:00,
2013-05-24 14:07:00,65.2,64.0,29.67,SSW,200,0.0,0.0,96,0.00,,SKC,0.37,VWS V14.01,2013-05-24 18:07:00,
2013-05-24 14:09:00,65.3,64.1,29.67,SSW,200,0.0,0.0,96,0.00,,SKC,0.37,VWS V14.01,2013-05-24 18:09:00,
2013-05-24 14:10:00,65.3,64.1,29.67,SSW,198,0.0,0.0,96,0.00,,SKC,0.37,VWS V14.01,2013-05-24 18:10:00,
2013-05-24 14:11:00,65.3,64.1,29.67,SSW,198,0.0,0.0,96,0.00,,SKC,0.37,VWS V14.01,2013-05-24 18:11:00,
2013-05-24 14:12:00,65.3,64.1,29.67,SSW,200,0.0,0.0,96,0.00,,SKC,0.37,VWS V14.01,2013-05-24 18:12:00,
2013-05-24 14:14:00,65.3,64.1,29.67,SSW,199,0.0,0.0,96,0.00,,SKC,0.37,VWS V14.01,2013-05-24 18:14:00,
2013-05-24 14:15:00,65.3,64.1,29.67,SSW,199,0.0,0.0,96,0.00,,SKC,0.37,VWS V14.01,2013-05-24 18:15:00,
2013-05-24 14:16:00,65.3,64.1,29.67,SSW,196,0.0,0.0,96,0.00,,SKC,0.37,VWS V14.01,2013-05-24 18:16:00,
2013-05-24 14:17:00,65.3,64.1,29.67,SSW,193,0.0,0.0,96,0.00,,SKC,0.37,VWS V14.01,2013-05-24 18:17:00,
2013-05-24 14:20:00,65.2,64.0,29.67,SSW,193,0.0,0.0,96,0.00,,SKC,0.37,VWS V14.01,2013-05-24 18:20:00,
2013-05-24 14:21:00,65.2,64.0,29.67,SSW,195,0.0,0.0,96,0.00,,SKC,0.37,VWS V14.01,2013-05-24 18:21:00,
2013-05-24 14:22:00,65.2,64.0,29.67,SSW,193,0.0,0.0,96,0.00,,SKC,0.37,VWS V14.01,2013-05-24 18:22:00,
2013-05-24 14:23:00,65.2,64.0,29.67,SW,216,0.0,0.0,96,0.00,,SKC,0.37,VWS V14.01,2013-05-24 18:23:00,
2013-05-24 14:25:00,65.3,64.1,29.67,SSW,206,0.0,0.0,96,0.00,,SKC,0.37,VWS V14.01,2013-05-24 18:25:00,
2013-05-24 14:26:00,65.3,64.1,29.67,SSW,205,0.0,0.0,96,0.00,,SKC,0.37,VWS V14.01,2013-05-24 18:26:00,
2013-05-24 14:27:00,65.3,64.1,29.67,SSW,199,0.0,0.0,96,0.00,,SKC,0.37,VWS V14.01,2013-05-24 18:27:00,
2013-05-24 14:28:00,65.3,64.1,29.67,SSW,199,0.0,0.0,96,0.00,,SKC,0.37,VWS V14.01,2013-05-24 18:28:00,
2013-05-24 14:30:00,65.3,64.1,29.68,SSW,196,0.0,0.0,96,0.00,,SKC,0.37,VWS V14.01,2013-05-24 18:30:00,
2013-05-24 14:31:00,65.2,64.0,29.67,South,189,0.0,0.0,96,0.00,,SKC,0.37,VWS V14.01,2013-05-24 18:31:00,
2013-05-24 14:32:00,65.2,64.0,29.67,SSW,200,0.0,0.0,96,0.00,,SKC,0.37,VWS V14.01,2013-05-24 18:32:00,
2013-05-24 14:33:00,65.2,64.0,29.67,SSW,198,0.0,0.0,96,0.00,,SKC,0.37,VWS V14.01,2013-05-24 18:33:00,
2013-05-24 14:34:00,65.0,63.8,29.67,SSW,198,0.0,0.0,96,0.00,,SKC,0.37,VWS V14.01,2013-05-24 18:34:00,
2013-05-24 14:35:00,65.2,64.0,29.68,SW,215,0.0,0.0,96,0.00,,SKC,0.37,VWS V14.01,2013-05-24 18:35:00,
2013-05-24 14:36:00,65.2,64.0,29.67,SSW,196,0.0,0.0,96,0.00,,SKC,0.37,VWS V14.01,2013-05-24 18:36:00,
2013-05-24 14:37:00,65.2,64.0,29.67,SSW,196,0.0,0.0,96,0.00,,SKC,0.37,VWS V14.01,2013-05-24 18:37:00,
2013-05-24 14:38:00,65.2,64.0,29.67,SSW,196,0.0,0.0,96,0.00,,SKC,0.37,VWS V14.01,2013-05-24 18:38:00,
2013-05-24 14:39:00,65.2,64.0,29.67,SSW,195,0.0,0.0,96,0.00,,SKC,0.37,VWS V14.01,2013-05-24 18:39:00,
2013-05-24 14:40:00,65.2,64.0,29.68,SSW,212,0.0,0.0,96,0.00,,SKC,0.37,VWS V14.01,2013-05-24 18:40:00,
2013-05-24 14:41:00,65.2,64.0,29.67,SSW,205,0.0,0.0,96,0.00,,SKC,0.37,VWS V14.01,2013-05-24 18:41:00,
2013-05-24 14:42:00,65.3,64.1,29.67,SSW,203,0.0,0.0,96,0.00,,SKC,0.37,VWS V14.01,2013-05-24 18:42:00,
2013-05-24 14:43:00,65.3,64.1,29.67,SSW,192,0.0,0.0,96,0.00,,SKC,0.37,VWS V14.01,2013-05-24 18:43:00,
2013-05-24 14:45:00,65.3,64.1,29.67,SSW,200,0.0,0.0,96,0.00,,SKC,0.37,VWS V14.01,2013-05-24 18:45:00,
2013-05-24 14:46:00,65.3,64.1,29.67,SSW,200,0.0,0.0,96,0.00,,SKC,0.37,VWS V14.01,2013-05-24 18:46:00,
2013-05-24 14:47:00,65.8,64.6,29.67,SSW,199,0.0,0.0,96,0.00,,SKC,0.37,VWS V14.01,2013-05-24 18:47:00,
2013-05-24 14:48:00,65.6,64.4,29.67,SSW,198,0.0,0.0,96,0.00,,SKC,0.37,VWS V14.01,2013-05-24 18:48:00,
2013-05-24 14:50:00,65.5,64.3,29.67,SW,222,0.0,0.0,96,0.00,,SKC,0.37,VWS V14.01,2013-05-24 18:50:00,
2013-05-24 14:52:00,65.5,64.3,29.67,SW,220,0.0,0.0,96,0.00,,SKC,0.37,VWS V14.01,2013-05-24 18:52:00,
2013-05-24 14:53:00,65.5,64.3,29.67,SW,219,0.0,0.0,96,0.00,,SKC,0.37,VWS V14.01,2013-05-24 18:53:00,
2013-05-24 14:54:00,65.5,64.3,29.67,SW,220,0.0,0.0,96,0.00,,SKC,0.37,VWS V14.01,2013-05-24 18:54:00,
2013-05-24 14:55:00,65.0,63.8,29.67,SSW,196,0.0,0.0,96,0.00,,SKC,0.37,VWS V14.01,2013-05-24 18:55:00,
2013-05-24 14:56:00,65.6,64.4,29.67,SW,219,0.0,0.0,96,0.00,,SKC,0.37,VWS V14.01,2013-05-24 18:56:00,
2013-05-24 14:57:00,65.6,64.4,29.67,SW,215,0.0,1.0,96,0.00,,SKC,0.37,VWS V14.01,2013-05-24 18:57:00,
2013-05-24 14:58:00,65.8,64.6,29.67,SW,217,0.0,1.0,96,0.00,,SKC,0.37,VWS V14.01,2013-05-24 18:58:00,
2013-05-24 14:59:00,66.0,64.8,29.67,SW,217,0.0,1.0,96,0.00,,SKC,0.37,VWS V14.01,2013-05-24 18:59:00,
2013-05-24 15:00:00,66.0,64.8,29.66,SW,219,0.0,0.0,96,0.00,,SKC,0.37,VWS V14.01,2013-05-24 19:00:00,
2013-05-24 15:01:00,65.8,64.6,29.66,SSW,213,0.0,0.0,96,0.00,,SKC,0.37,VWS V14.01,2013-05-24 19:01:00,
2013-05-24 15:02:00,65.8,64.6,29.66,SSW,210,0.0,0.0,96,0.00,,SKC,0.37,VWS V14.01,2013-05-24 19:02:00,
2013-05-24 15:03:00,65.6,64.4,29.66,SW,215,0.0,0.0,96,0.00,,SKC,0.37,VWS V14.01,2013-05-24 19:03:00,
2013-05-24 15:05:00,65.6,64.4,29.66,SW,215,0.0,0.0,96,0.00,,SKC,0.37,VWS V14.01,2013-05-24 19:05:00,
2013-05-24 15:06:00,65.8,64.6,29.66,SSW,213,0.0,0.0,96,0.00,,SKC,0.37,VWS V14.01,2013-05-24 19:06:00,
2013-05-24 15:08:00,66.0,64.8,29.66,SSW,213,0.0,0.0,96,0.00,,SKC,0.37,VWS V14.01,2013-05-24 19:08:00,
2013-05-24 15:10:00,66.1,64.6,29.66,SW,215,0.0,0.0,95,0.00,,SKC,0.37,VWS V14.01,2013-05-24 19:10:00,
2013-05-24 15:11:00,66.3,64.8,29.66,SW,217,0.0,0.0,95,0.00,,SKC,0.37,VWS V14.01,2013-05-24 19:11:00,
2013-05-24 15:12:00,66.3,64.8,29.66,SW,217,0.0,0.0,95,0.00,,SKC,0.37,VWS V14.01,2013-05-24 19:12:00,
2013-05-24 15:13:00,66.3,64.8,29.66,SW,216,0.0,0.0,95,0.00,,SKC,0.37,VWS V14.01,2013-05-24 19:13:00,
2013-05-24 15:14:00,66.3,64.8,29.66,SW,215,0.0,0.0,95,0.00,,SKC,0.37,VWS V14.01,2013-05-24 19:14:00,
2013-05-24 15:15:00,66.4,64.9,29.65,SW,216,0.0,0.0,95,0.00,,SKC,0.37,VWS V14.01,2013-05-24 19:15:00,
2013-05-24 15:17:00,66.4,64.9,29.65,SW,216,0.0,0.0,95,0.00,,SKC,0.37,VWS V14.01,2013-05-24 19:17:00,
2013-05-24 15:18:00,66.4,64.9,29.65,SW,216,0.0,0.0,95,0.00,,SKC,0.37,VWS V14.01,2013-05-24 19:18:00,
2013-05-24 15:19:00,66.4,64.9,29.65,SW,216,0.0,0.0,95,0.00,,SKC,0.37,VWS V14.01,2013-05-24 19:19:00,
2013-05-24 15:20:00,66.4,64.9,29.65,SW,216,0.0,0.0,95,0.00,,SKC,0.37,VWS V14.01,2013-05-24 19:20:00,
2013-05-24 15:22:00,66.4,64.9,29.65,SW,216,0.0,0.0,95,0.00,,SKC,0.37,VWS V14.01,2013-05-24 19:22:00,
2013-05-24 15:23:00,66.4,64.9,29.65,SW,217,0.0,0.0,95,0.00,,SKC,0.37,VWS V14.01,2013-05-24 19:23:00,
2013-05-24 15:24:00,66.3,64.5,29.65,SW,216,0.0,0.0,94,0.00,,SKC,0.37,VWS V14.01,2013-05-24 19:24:00,
2013-05-24 15:25:00,65.3,64.1,29.67,SSW,205,0.0,0.0,96,0.00,,SKC,0.37,VWS V14.01,2013-05-24 19:25:00,
2013-05-24 15:26:00,66.3,64.5,29.65,SW,216,0.0,0.0,94,0.00,,SKC,0.37,VWS V14.01,2013-05-24 19:26:00,
2013-05-24 15:27:00,66.3,64.5,29.65,SW,215,0.0,0.0,94,0.00,,SKC,0.37,VWS V14.01,2013-05-24 19:27:00,
2013-05-24 15:28:00,66.3,64.5,29.65,SW,217,0.0,0.0,94,0.00,,SKC,0.37,VWS V14.01,2013-05-24 19:28:00,
2013-05-24 15:30:00,66.3,64.5,29.66,SW,217,0.0,0.0,94,0.00,,SKC,0.37,VWS V14.01,2013-05-24 19:30:00,
2013-05-24 15:32:00,66.1,64.0,29.66,SW,215,0.0,0.0,93,0.00,,SKC,0.37,VWS V14.01,2013-05-24 19:32:00,
2013-05-24 15:33:00,66.1,64.0,29.66,SW,215,0.0,0.0,93,0.00,,SKC,0.37,VWS V14.01,2013-05-24 19:33:00,
2013-05-24 15:35:00,66.1,64.0,29.66,SW,215,0.0,0.0,93,0.00,,SKC,0.37,VWS V14.01,2013-05-24 19:35:00,
2013-05-24 15:38:00,66.3,64.2,29.66,SW,217,1.0,1.0,93,0.00,,SKC,0.37,VWS V14.01,2013-05-24 19:38:00,
2013-05-24 15:39:00,66.3,64.2,29.66,SW,215,2.0,2.0,93,0.00,,SKC,0.37,VWS V14.01,2013-05-24 19:39:00,
2013-05-24 15:40:00,66.3,64.2,29.66,SW,217,0.0,2.0,93,0.00,,SKC,0.37,VWS V14.01,2013-05-24 19:40:00,
2013-05-24 15:43:00,66.4,64.3,29.66,SW,216,0.0,2.0,93,0.00,,SKC,0.37,VWS V14.01,2013-05-24 19:43:00,
2013-05-24 15:44:00,66.4,64.3,29.66,SW,215,0.0,2.0,93,0.00,,SKC,0.37,VWS V14.01,2013-05-24 19:44:00,
2013-05-24 15:45:00,65.3,64.1,29.67,SSW,200,0.0,0.0,96,0.00,,SKC,0.37,VWS V14.01,2013-05-24 19:45:00,
2013-05-24 15:46:00,66.4,64.0,29.66,SW,216,0.0,0.0,92,0.00,,SKC,0.37,VWS V14.01,2013-05-24 19:46:00,
2013-05-24 15:49:00,66.4,64.0,29.66,SW,222,0.0,0.0,92,0.00,,SKC,0.37,VWS V14.01,2013-05-24 19:49:00,
2013-05-24 15:50:00,66.4,64.0,29.66,SW,222,0.0,0.0,92,0.00,,SKC,0.37,VWS V14.01,2013-05-24 19:50:00,
2013-05-24 15:51:00,66.4,64.0,29.66,SW,222,0.0,0.0,92,0.00,,SKC,0.37,VWS V14.01,2013-05-24 19:51:00,
2013-05-24 15:54:00,66.4,63.7,29.66,SSW,213,0.0,0.0,91,0.00,,SKC,0.37,VWS V14.01,2013-05-24 19:54:00,
2013-05-24 15:55:00,66.4,63.7,29.66,SSW,213,0.0,0.0,91,0.00,,SKC,0.37,VWS V14.01,2013-05-24 19:55:00,
2013-05-24 15:56:00,66.4,63.7,29.66,SSW,213,0.0,0.0,91,0.00,,SKC,0.37,VWS V14.01,2013-05-24 19:56:00,
2013-05-24 15:59:00,66.8,64.1,29.65,SSW,213,0.0,0.0,91,0.00,,SKC,0.37,VWS V14.01,2013-05-24 19:59:00,
2013-05-24 16:00:00,66.8,64.1,29.65,SW,215,0.0,0.0,91,0.00,,SKC,0.37,VWS V14.01,2013-05-24 20:00:00,
2013-05-24 16:01:00,66.6,63.9,29.65,SSW,210,0.0,0.0,91,0.00,,SKC,0.37,VWS V14.01,2013-05-24 20:01:00,
2013-05-24 16:02:00,66.6,63.6,29.65,SSW,212,0.0,0.0,90,0.00,,SKC,0.37,VWS V14.01,2013-05-24 20:02:00,
2013-05-24 16:04:00,66.4,63.4,29.65,SSW,213,0.0,0.0,90,0.00,,SKC,0.37,VWS V14.01,2013-05-24 20:04:00,
2013-05-24 16:05:00,66.4,63.4,29.65,SW,215,0.0,0.0,90,0.00,,SKC,0.37,VWS V14.01,2013-05-24 20:05:00,
2013-05-24 16:06:00,66.4,63.4,29.65,SSW,213,0.0,0.0,90,0.00,,SKC,0.37,VWS V14.01,2013-05-24 20:06:00,
2013-05-24 16:07:00,66.4,63.4,29.65,SSW,213,0.0,0.0,90,0.00,,SKC,0.37,VWS V14.01,2013-05-24 20:07:00,
2013-05-24 16:10:00,66.4,63.4,29.65,SSW,212,0.0,0.0,90,0.00,,SKC,0.37,VWS V14.01,2013-05-24 20:10:00,
2013-05-24 16:11:00,66.4,63.4,29.65,SSW,212,0.0,0.0,90,0.00,,SKC,0.37,VWS V14.01,2013-05-24 20:11:00,
2013-05-24 16:12:00,66.4,63.4,29.65,SSW,213,0.0,0.0,90,0.00,,SKC,0.37,VWS V14.01,2013-05-24 20:12:00,
2013-05-24 16:13:00,66.4,63.4,29.65,SSW,213,0.0,0.0,90,0.00,,SKC,0.37,VWS V14.01,2013-05-24 20:13:00,
2013-05-24 16:15:00,66.6,63.6,29.66,SSW,213,0.0,0.0,90,0.00,,SKC,0.37,VWS V14.01,2013-05-24 20:15:00,
2013-05-24 16:16:00,66.6,63.6,29.66,SW,215,0.0,0.0,90,0.00,,SKC,0.37,VWS V14.01,2013-05-24 20:16:00,
2013-05-24 16:17:00,66.6,63.6,29.66,SW,215,0.0,0.0,90,0.00,,SKC,0.37,VWS V14.01,2013-05-24 20:17:00,
2013-05-24 16:18:00,66.6,63.6,29.66,SW,215,0.0,0.0,90,0.00,,SKC,0.37,VWS V14.01,2013-05-24 20:18:00,
2013-05-24 16:20:00,66.8,63.8,29.66,SW,215,0.0,0.0,90,0.00,,SKC,0.37,VWS V14.01,2013-05-24 20:20:00,
2013-05-24 16:21:00,66.8,63.8,29.66,SSW,213,0.0,0.0,90,0.00,,SKC,0.37,VWS V14.01,2013-05-24 20:21:00,
2013-05-24 16:22:00,66.8,63.8,29.66,SSW,213,0.0,0.0,90,0.00,,SKC,0.37,VWS V14.01,2013-05-24 20:22:00,
2013-05-24 16:23:00,66.8,63.8,29.66,SW,215,0.0,0.0,90,0.00,,SKC,0.37,VWS V14.01,2013-05-24 20:23:00,
2013-05-24 16:25:00,66.3,64.5,29.65,SW,216,0.0,0.0,94,0.00,,SKC,0.37,VWS V14.01,2013-05-24 20:25:00,
2013-05-24 16:26:00,66.8,63.8,29.66,SSW,213,0.0,0.0,90,0.00,,SKC,0.37,VWS V14.01,2013-05-24 20:26:00,
2013-05-24 16:27:00,66.8,63.8,29.66,SSW,213,0.0,0.0,90,0.00,,SKC,0.37,VWS V14.01,2013-05-24 20:27:00,
2013-05-24 16:28:00,66.8,63.8,29.66,SSW,213,0.0,0.0,90,0.00,,SKC,0.37,VWS V14.01,2013-05-24 20:28:00,
2013-05-24 16:29:00,66.8,63.8,29.66,SW,216,0.0,0.0,90,0.00,,SKC,0.37,VWS V14.01,2013-05-24 20:29:00,
2013-05-24 16:30:00,66.3,64.5,29.66,SW,217,0.0,0.0,94,0.00,,SKC,0.37,VWS V14.01,2013-05-24 20:30:00,
2013-05-24 16:32:00,66.8,63.8,29.66,SW,217,0.0,0.0,90,0.00,,SKC,0.37,VWS V14.01,2013-05-24 20:32:00,
2013-05-24 16:33:00,66.8,63.1,29.66,SSW,213,0.0,0.0,88,0.00,,SKC,0.37,VWS V14.01,2013-05-24 20:33:00,
2013-05-24 16:35:00,66.8,63.1,29.66,SW,216,0.0,0.0,88,0.00,,SKC,0.37,VWS V14.01,2013-05-24 20:35:00,
2013-05-24 16:37:00,66.8,63.1,29.66,SW,215,0.0,0.0,88,0.00,,SKC,0.37,VWS V14.01,2013-05-24 20:37:00,
2013-05-24 16:38:00,66.8,63.1,29.66,SSW,213,0.0,0.0,88,0.00,,SKC,0.37,VWS V14.01,2013-05-24 20:38:00,
2013-05-24 16:39:00,66.8,63.1,29.66,SSW,213,0.0,0.0,88,0.00,,SKC,0.37,VWS V14.01,2013-05-24 20:39:00,
2013-05-24 16:40:00,66.3,64.2,29.66,SW,215,2.0,2.0,93,0.00,,SKC,0.37,VWS V14.01,2013-05-24 20:40:00,
2013-05-24 16:41:00,66.8,63.1,29.66,SSW,213,0.0,0.0,88,0.00,,SKC,0.37,VWS V14.01,2013-05-24 20:41:00,
2013-05-24 16:42:00,66.9,63.2,29.66,SSW,203,0.0,0.0,88,0.00,,SKC,0.37,VWS V14.01,2013-05-24 20:42:00,
2013-05-24 16:43:00,66.9,63.2,29.66,SSW,203,0.0,0.0,88,0.00,,SKC,0.37,VWS V14.01,2013-05-24 20:43:00,
2013-05-24 16:44:00,66.8,63.1,29.66,SSW,213,0.0,0.0,88,0.00,,SKC,0.37,VWS V14.01,2013-05-24 20:44:00,
2013-05-24 16:45:00,66.4,64.0,29.66,SW,215,0.0,2.0,92,0.00,,SKC,0.37,VWS V14.01,2013-05-24 20:45:00,
2013-05-24 16:46:00,66.4,62.7,29.66,SSW,213,0.0,0.0,88,0.00,,SKC,0.37,VWS V14.01,2013-05-24 20:46:00,
2013-05-24 16:48:00,66.4,62.7,29.66,ESE,120,0.0,0.0,88,0.00,,SKC,0.37,VWS V14.01,2013-05-24 20:48:00,
2013-05-24 16:49:00,66.3,62.6,29.66,ESE,120,0.0,0.0,88,0.00,,SKC,0.37,VWS V14.01,2013-05-24 20:49:00,
2013-05-24 16:50:00,66.4,64.0,29.66,SW,222,0.0,0.0,92,0.00,,SKC,0.37,VWS V14.01,2013-05-24 20:50:00,
2013-05-24 16:51:00,66.3,62.6,29.66,NNW,336,3.0,3.0,88,0.00,,SKC,0.37,VWS V14.01,2013-05-24 20:51:00,
2013-05-24 16:53:00,66.3,62.6,29.66,NNW,336,3.0,3.0,88,0.00,,SKC,0.37,VWS V14.01,2013-05-24 20:53:00,
2013-05-24 16:54:00,66.3,62.6,29.66,NNW,336,3.0,3.0,88,0.00,,SKC,0.37,VWS V14.01,2013-05-24 20:54:00,
2013-05-24 16:55:00,66.3,62.6,29.66,SE,124,3.0,3.0,88,0.00,,SKC,0.37,VWS V14.01,2013-05-24 20:55:00,
2013-05-24 16:57:00,65.5,61.9,29.66,NNW,336,0.0,3.0,88,0.00,,SKC,0.37,VWS V14.01,2013-05-24 20:57:00,
2013-05-24 16:59:00,65.5,61.9,29.67,NNW,336,1.0,3.0,88,0.00,,SKC,0.37,VWS V14.01,2013-05-24 20:59:00,
2013-05-24 17:00:00,65.5,61.9,29.67,NNW,336,1.0,3.0,88,0.00,,SKC,0.37,VWS V14.01,2013-05-24 21:00:00,
2013-05-24 17:02:00,65.5,61.9,29.67,NNW,336,1.0,1.0,88,0.00,,SKC,0.37,VWS V14.01,2013-05-24 21:02:00,
2013-05-24 17:04:00,65.5,61.9,29.67,NNW,336,1.0,1.0,88,0.00,,SKC,0.37,VWS V14.01,2013-05-24 21:04:00,
2013-05-24 17:05:00,65.5,61.9,29.67,NNW,336,1.0,1.0,88,0.00,,SKC,0.37,VWS V14.01,2013-05-24 21:05:00,
2013-05-24 17:06:00,65.5,61.9,29.67,NNW,336,1.0,1.0,88,0.00,,SKC,0.37,VWS V14.01,2013-05-24 21:06:00,
2013-05-24 17:08:00,65.5,61.9,29.67,NNW,333,1.0,1.0,88,0.00,,SKC,0.37,VWS V14.01,2013-05-24 21:08:00,
2013-05-24 17:10:00,64.5,61.5,29.67,NNW,333,0.0,1.0,90,0.06,,SKC,0.43,VWS V14.01,2013-05-24 21:10:00,
2013-05-24 17:11:00,64.5,61.5,29.67,NNW,347,5.0,5.0,90,0.08,,SKC,0.45,VWS V14.01,2013-05-24 21:11:00,
2013-05-24 17:14:00,64.3,61.6,29.67,North,357,1.0,5.0,91,0.10,,SKC,0.47,VWS V14.01,2013-05-24 21:14:00,
2013-05-24 17:15:00,64.3,61.6,29.67,NNW,329,0.0,5.0,91,0.11,,SKC,0.48,VWS V14.01,2013-05-24 21:15:00,
2013-05-24 17:16:00,64.2,61.5,29.67,NNW,329,0.0,0.0,91,0.13,,SKC,0.50,VWS V14.01,2013-05-24 21:16:00,
2013-05-24 17:17:00,64.2,61.5,29.67,NNW,329,0.0,0.0,91,0.14,,SKC,0.51,VWS V14.01,2013-05-24 21:17:00,
2013-05-24 17:19:00,64.0,61.3,29.67,NNW,328,0.0,0.0,91,0.17,,SKC,0.54,VWS V14.01,2013-05-24 21:19:00,
2013-05-24 17:20:00,66.8,63.8,29.66,SW,215,0.0,0.0,90,0.00,,SKC,0.37,VWS V14.01,2013-05-24 21:20:00,
2013-05-24 17:21:00,63.9,61.2,29.67,West,268,0.0,0.0,91,0.18,,SKC,0.55,VWS V14.01,2013-05-24 21:21:00,
2013-05-24 17:22:00,63.9,61.2,29.67,West,267,0.0,0.0,91,0.19,,SKC,0.56,VWS V14.01,2013-05-24 21:22:00,
2013-05-24 17:25:00,63.5,60.8,29.67,NNW,336,1.0,1.0,91,0.23,,SKC,0.60,VWS V14.01,2013-05-24 21:25:00,
2013-05-24 17:27:00,63.5,60.8,29.67,North,353,0.0,1.0,91,0.23,,SKC,0.60,VWS V14.01,2013-05-24 21:27:00,
2013-05-24 17:30:00,63.5,60.8,29.68,North,350,1.0,1.0,91,0.31,,SKC,0.68,VWS V14.01,2013-05-24 21:30:00,
2013-05-24 17:32:00,63.5,60.8,29.68,North,350,0.0,1.0,91,0.33,,SKC,0.70,VWS V14.01,2013-05-24 21:32:00,
2013-05-24 17:33:00,63.5,60.8,29.68,NNW,346,1.0,5.0,91,0.35,,SKC,0.72,VWS V14.01,2013-05-24 21:33:00,
2013-05-24 17:35:00,63.5,60.8,29.68,SE,130,0.0,0.0,91,0.37,,SKC,0.74,VWS V14.01,2013-05-24 21:35:00,
2013-05-24 17:37:00,62.4,59.7,29.68,SE,131,0.0,0.0,91,0.37,,SKC,0.74,VWS V14.01,2013-05-24 21:37:00,
2013-05-24 17:38:00,62.4,59.7,29.68,SE,133,0.0,0.0,91,0.39,,SKC,0.76,VWS V14.01,2013-05-24 21:38:00,
2013-05-24 17:40:00,66.8,63.1,29.66,SSW,213,0.0,0.0,88,0.00,,SKC,0.37,VWS V14.01,2013-05-24 21:40:00,
2013-05-24 17:41:00,62.4,60.0,29.68,North,357,3.0,3.0,92,0.39,,SKC,0.76,VWS V14.01,2013-05-24 21:41:00,
2013-05-24 17:42:00,62.4,60.0,29.68,North,357,3.0,3.0,92,0.39,,SKC,0.76,VWS V14.01,2013-05-24 21:42:00,
2013-05-24 17:43:00,62.4,60.0,29.68,North,357,0.0,3.0,92,0.39,,SKC,0.76,VWS V14.01,2013-05-24 21:43:00,
2013-05-24 17:44:00,62.1,59.8,29.68,North,357,0.0,3.0,92,0.39,,SKC,0.76,VWS V14.01,2013-05-24 21:44:00,
2013-05-24 17:45:00,66.8,63.1,29.66,SSW,213,0.0,0.0,88,0.00,,SKC,0.37,VWS V14.01,2013-05-24 21:45:00,
2013-05-24 17:47:00,62.1,59.8,29.69,North,357,0.0,0.0,92,0.39,,SKC,0.76,VWS V14.01,2013-05-24 21:47:00,
2013-05-24 17:48:00,62.1,59.8,29.69,North,357,0.0,0.0,92,0.39,,SKC,0.76,VWS V14.01,2013-05-24 21:48:00,
2013-05-24 17:49:00,62.1,59.8,29.69,North,357,0.0,0.0,92,0.39,,SKC,0.76,VWS V14.01,2013-05-24 21:49:00,
2013-05-24 17:50:00,66.3,62.6,29.66,NNW,336,3.0,3.0,88,0.00,,SKC,0.37,VWS V14.01,2013-05-24 21:50:00,
2013-05-24 17:53:00,62.1,59.8,29.69,North,356,1.0,1.0,92,0.47,,SKC,0.84,VWS V14.01,2013-05-24 21:53:00,
2013-05-24 17:54:00,62.1,60.1,29.69,SE,126,5.0,5.0,93,0.47,,SKC,0.84,VWS V14.01,2013-05-24 21:54:00,
2013-05-24 17:55:00,66.3,62.6,29.66,SE,124,3.0,3.0,88,0.00,,SKC,0.37,VWS V14.01,2013-05-24 21:55:00,
2013-05-24 17:58:00,62.0,60.0,29.69,SE,141,4.0,5.0,93,0.47,,SKC,0.84,VWS V14.01,2013-05-24 21:58:00,
2013-05-24 17:59:00,62.0,60.0,29.67,SE,141,4.0,5.0,93,0.47,,SKC,0.84,VWS V14.01,2013-05-24 21:59:00,
2013-05-24 18:00:00,62.0,60.0,29.67,SE,141,4.0,5.0,93,0.47,,SKC,0.84,VWS V14.01,2013-05-24 22:00:00,
2013-05-24 18:04:00,61.6,59.6,29.67,NNW,335,6.0,6.0,93,0.47,,SKC,0.84,VWS V14.01,2013-05-24 22:04:00,
2013-05-24 18:05:00,61.6,59.6,29.67,NNW,335,6.0,6.0,93,0.47,,SKC,0.84,VWS V14.01,2013-05-24 22:05:00,
2013-05-24 18:06:00,61.6,59.6,29.67,NNW,335,6.0,6.0,93,0.47,,SKC,0.84,VWS V14.01,2013-05-24 22:06:00,
2013-05-24 18:09:00,61.8,59.8,29.67,North,354,1.0,6.0,93,0.47,,SKC,0.84,VWS V14.01,2013-05-24 22:09:00,
2013-05-24 18:10:00,61.8,59.8,29.67,North,356,1.0,6.0,93,0.47,,SKC,0.84,VWS V14.01,2013-05-24 22:10:00,
2013-05-24 18:11:00,61.8,60.1,29.67,North,357,0.0,2.0,94,0.40,,SKC,0.84,VWS V14.01,2013-05-24 22:11:00,
2013-05-24 18:12:00,61.8,60.1,29.67,North,357,0.0,2.0,94,0.40,,SKC,0.84,VWS V14.01,2013-05-24 22:12:00,
2013-05-24 18:15:00,61.8,60.1,29.67,North,356,0.0,2.0,94,0.40,,SKC,0.84,VWS V14.01,2013-05-24 22:15:00,
2013-05-24 18:16:00,61.8,60.1,29.67,NNW,335,2.0,4.0,94,0.36,,SKC,0.84,VWS V14.01,2013-05-24 22:16:00,
2013-05-24 18:17:00,61.8,60.1,29.67,SE,138,0.0,5.0,94,0.36,,SKC,0.84,VWS V14.01,2013-05-24 22:17:00,
2013-05-24 18:20:00,61.8,60.1,29.67,North,357,2.0,2.0,94,0.29,,SKC,0.84,VWS V14.01,2013-05-24 22:20:00,
2013-05-24 18:21:00,61.6,59.9,29.67,North,357,2.0,3.0,94,0.29,,SKC,0.84,VWS V14.01,2013-05-24 22:21:00,
2013-05-24 18:22:00,61.6,59.6,29.67,NNW,330,2.0,5.0,93,0.30,,SKC,0.85,VWS V14.01,2013-05-24 22:22:00,
2013-05-24 18:25:00,61.2,59.2,29.67,NW,306,3.0,4.0,93,0.25,,SKC,0.85,VWS V14.01,2013-05-24 22:25:00,
2013-05-24 18:26:00,61.2,59.2,29.67,NNW,328,2.0,6.0,93,0.25,,SKC,0.85,VWS V14.01,2013-05-24 22:26:00,
2013-05-24 18:27:00,61.0,59.0,29.67,NNW,339,2.0,6.0,93,0.25,,SKC,0.85,VWS V14.01,2013-05-24 22:27:00,
2013-05-24 18:30:00,60.9,58.9,29.68,NNW,332,1.0,2.0,93,0.17,,SKC,0.85,VWS V14.01,2013-05-24 22:30:00,
2013-05-24 18:31:00,60.7,58.7,29.68,NNW,333,2.0,2.0,93,0.17,,SKC,0.85,VWS V14.01,2013-05-24 22:31:00,
2013-05-24 18:32:00,60.7,58.7,29.68,NNW,333,2.0,2.0,93,0.17,,SKC,0.85,VWS V14.01,2013-05-24 22:32:00,
2013-05-24 18:33:00,60.7,58.7,29.68,North,356,2.0,2.0,93,0.17,,SKC,0.85,VWS V14.01,2013-05-24 22:33:00,
2013-05-24 18:35:00,63.5,60.8,29.68,SE,133,0.0,5.0,91,0.35,,SKC,0.72,VWS V14.01,2013-05-24 22:35:00,
2013-05-24 18:36:00,60.7,58.7,29.68,North,352,1.0,2.0,93,0.13,,SKC,0.85,VWS V14.01,2013-05-24 22:36:00,
2013-05-24 18:37:00,60.7,58.7,29.68,North,352,1.0,2.0,93,0.13,,SKC,0.85,VWS V14.01,2013-05-24 22:37:00,
2013-05-24 18:38:00,60.7,58.7,29.68,NNW,336,2.0,2.0,93,0.13,,SKC,0.85,VWS V14.01,2013-05-24 22:38:00,
2013-05-24 18:40:00,62.4,60.0,29.68,SE,127,0.0,0.0,92,0.39,,SKC,0.76,VWS V14.01,2013-05-24 22:40:00,
2013-05-24 18:41:00,60.7,58.7,29.68,SE,126,2.0,2.0,93,0.09,,SKC,0.85,VWS V14.01,2013-05-24 22:41:00,
2013-05-24 18:42:00,60.7,58.7,29.68,SE,126,2.0,2.0,93,0.09,,SKC,0.85,VWS V14.01,2013-05-24 22:42:00,
2013-05-24 18:43:00,60.7,58.7,29.68,SE,126,2.0,2.0,93,0.09,,SKC,0.85,VWS V14.01,2013-05-24 22:43:00,
2013-05-24 18:45:00,62.1,59.8,29.69,North,357,0.0,3.0,92,0.39,,SKC,0.76,VWS V14.01,2013-05-24 22:45:00,
2013-05-24 18:46:00,60.7,58.7,29.70,West,265,0.0,2.0,93,0.09,,SKC,0.85,VWS V14.01,2013-05-24 22:46:00,
2013-05-24 18:47:00,60.7,58.7,29.70,West,265,0.0,2.0,93,0.09,,SKC,0.85,VWS V14.01,2013-05-24 22:47:00,
2013-05-24 18:48:00,60.7,58.7,29.70,West,265,0.0,2.0,93,0.09,,SKC,0.85,VWS V14.01,2013-05-24 22:48:00,
2013-05-24 18:49:00,60.7,58.7,29.70,West,265,0.0,2.0,93,0.09,,SKC,0.85,VWS V14.01,2013-05-24 22:49:00,
2013-05-24 18:50:00,62.1,59.8,29.69,North,356,0.0,0.0,92,0.39,,SKC,0.76,VWS V14.01,2013-05-24 22:50:00,
2013-05-24 18:52:00,60.7,58.7,29.70,SE,130,0.0,0.0,93,0.09,,SKC,0.85,VWS V14.01,2013-05-24 22:52:00,
2013-05-24 18:53:00,60.7,58.7,29.70,NNW,335,2.0,5.0,93,0.09,,SKC,0.85,VWS V14.01,2013-05-24 22:53:00,
2013-05-24 18:54:00,60.7,58.7,29.70,NNW,335,2.0,5.0,93,0.09,,SKC,0.85,VWS V14.01,2013-05-24 22:54:00,
2013-05-24 18:55:00,62.1,60.1,29.69,ESE,121,4.0,5.0,93,0.47,,SKC,0.84,VWS V14.01,2013-05-24 22:55:00,
2013-05-24 18:57:00,60.7,58.7,29.70,North,356,5.0,5.0,93,0.01,,SKC,0.85,VWS V14.01,2013-05-24 22:57:00,
2013-05-24 18:58:00,60.7,58.1,29.70,NNW,333,0.0,5.0,91,0.01,,SKC,0.85,VWS V14.01,2013-05-24 22:58:00,
2013-05-24 18:59:00,59.2,56.6,29.70,North,353,0.0,5.0,91,0.01,,SKC,0.85,VWS V14.01,2013-05-24 22:59:00,
2013-05-24 19:00:00,62.0,60.0,29.67,SE,141,4.0,5.0,93,0.47,,SKC,0.84,VWS V14.01,2013-05-24 23:00:00,
2013-05-24 19:02:00,59.2,56.6,29.71,NNW,347,0.0,0.0,91,0.01,,SKC,0.85,VWS V14.01,2013-05-24 23:02:00,
2013-05-24 19:03:00,59.2,56.6,29.71,NNW,347,0.0,0.0,91,0.01,,SKC,0.85,VWS V14.01,2013-05-24 23:03:00,
2013-05-24 19:04:00,59.2,56.6,29.71,NNW,347,0.0,0.0,91,0.01,,SKC,0.85,VWS V14.01,2013-05-24 23:04:00,
2013-05-24 19:05:00,59.2,56.6,29.71,NNW,347,0.0,0.0,91,0.01,,SKC,0.85,VWS V14.01,2013-05-24 23:05:00,
2013-05-24 19:07:00,59.2,56.6,29.71,NNW,347,0.0,0.0,91,0.01,,SKC,0.85,VWS V14.01,2013-05-24 23:07:00,
2013-05-24 19:08:00,59.2,56.6,29.71,NNW,347,0.0,0.0,91,0.01,,SKC,0.85,VWS V14.01,2013-05-24 23:08:00,
2013-05-24 19:09:00,59.2,56.6,29.71,NNW,347,0.0,0.0,91,0.01,,SKC,0.85,VWS V14.01,2013-05-24 23:09:00,
2013-05-24 19:10:00,59.2,56.6,29.71,NNW,347,0.0,0.0,91,0.01,,SKC,0.85,VWS V14.01,2013-05-24 23:10:00,
2013-05-24 19:13:00,59.2,56.6,29.71,NNW,347,0.0,0.0,91,0.01,,SKC,0.85,VWS V14.01,2013-05-24 23:13:00,
2013-05-24 19:14:00,59.2,56.6,29.72,NNW,347,0.0,0.0,91,0.01,,SKC,0.85,VWS V14.01,2013-05-24 23:14:00,
2013-05-24 19:15:00,59.2,56.6,29.72,NNW,347,0.0,0.0,91,0.01,,SKC,0.85,VWS V14.01,2013-05-24 23:15:00,
2013-05-24 19:18:00,59.2,56.6,29.72,NNW,347,0.0,0.0,91,0.01,,SKC,0.85,VWS V14.01,2013-05-24 23:18:00,
2013-05-24 19:20:00,59.2,56.6,29.72,NNW,347,0.0,0.0,91,0.01,,SKC,0.85,VWS V14.01,2013-05-24 23:20:00,
2013-05-24 19:21:00,59.2,56.6,29.72,NNW,347,0.0,0.0,91,0.01,,SKC,0.85,VWS V14.01,2013-05-24 23:21:00,
2013-05-24 19:23:00,59.2,56.6,29.72,NNW,347,0.0,0.0,91,0.01,,SKC,0.85,VWS V14.01,2013-05-24 23:23:00,
2013-05-24 19:25:00,59.2,56.6,29.72,NNW,347,0.0,0.0,91,0.01,,SKC,0.85,VWS V14.01,2013-05-24 23:25:00,
2013-05-24 19:26:00,59.2,56.6,29.72,NNW,347,0.0,0.0,91,0.00,,SKC,0.85,VWS V14.01,2013-05-24 23:26:00,
2013-05-24 19:28:00,59.2,56.6,29.72,NNW,347,0.0,0.0,91,0.00,,SKC,0.85,VWS V14.01,2013-05-24 23:28:00,
2013-05-24 19:30:00,59.2,56.6,29.73,NNW,347,0.0,0.0,91,0.00,,SKC,0.85,VWS V14.01,2013-05-24 23:30:00,
2013-05-24 19:31:00,59.2,56.6,29.73,NNW,347,0.0,0.0,91,0.00,,SKC,0.85,VWS V14.01,2013-05-24 23:31:00,
2013-05-24 19:32:00,59.2,56.6,29.73,NNW,347,0.0,0.0,91,0.00,,SKC,0.85,VWS V14.01,2013-05-24 23:32:00,
2013-05-24 19:34:00,59.2,56.6,29.73,NNW,347,0.0,0.0,91,0.00,,SKC,0.85,VWS V14.01,2013-05-24 23:34:00,
2013-05-24 19:35:00,59.2,56.6,29.73,NNW,347,0.0,0.0,91,0.00,,SKC,0.85,VWS V14.01,2013-05-24 23:35:00,
2013-05-24 19:36:00,59.2,56.6,29.73,NNW,347,0.0,0.0,91,0.00,,SKC,0.85,VWS V14.01,2013-05-24 23:36:00,
2013-05-24 19:37:00,59.2,56.6,29.73,NNW,347,0.0,0.0,91,0.00,,SKC,0.85,VWS V14.01,2013-05-24 23:37:00,
2013-05-24 19:39:00,59.2,56.6,29.73,NNW,347,0.0,0.0,91,0.00,,SKC,0.85,VWS V14.01,2013-05-24 23:39:00,
2013-05-24 19:40:00,60.7,58.7,29.68,NNW,344,0.0,2.0,93,0.13,,SKC,0.85,VWS V14.01,2013-05-24 23:40:00,
2013-05-24 19:41:00,59.2,56.6,29.73,NNW,347,0.0,0.0,91,0.00,,SKC,0.85,VWS V14.01,2013-05-24 23:41:00,
2013-05-24 19:42:00,59.2,56.6,29.73,NNW,347,0.0,0.0,91,0.00,,SKC,0.85,VWS V14.01,2013-05-24 23:42:00,
2013-05-24 19:44:00,57.2,54.6,29.73,SE,124,6.0,6.0,91,0.00,,SKC,0.85,VWS V14.01,2013-05-24 23:44:00,
2013-05-24 19:45:00,60.7,58.7,29.70,West,268,2.0,2.0,93,0.09,,SKC,0.85,VWS V14.01,2013-05-24 23:45:00,
2013-05-24 19:47:00,57.0,54.4,29.73,SE,130,0.0,2.0,91,0.01,,SKC,0.86,VWS V14.01,2013-05-24 23:47:00,
2013-05-24 19:48:00,57.0,54.4,29.73,SE,137,5.0,6.0,91,0.02,,SKC,0.87,VWS V14.01,2013-05-24 23:48:00,
2013-05-24 19:50:00,56.9,54.3,29.73,NNW,343,0.0,6.0,91,0.02,,SKC,0.87,VWS V14.01,2013-05-24 23:50:00,
2013-05-24 19:52:00,56.9,54.3,29.73,North,357,1.0,3.0,91,0.02,,SKC,0.87,VWS V14.01,2013-05-24 23:52:00,
2013-05-24 19:54:00,56.7,54.1,29.73,NNW,332,1.0,6.0,91,0.02,,SKC,0.87,VWS V14.01,2013-05-24 23:54:00,
2013-05-24 19:55:00,56.7,54.1,29.73,NNW,342,2.0,2.0,91,0.02,,SKC,0.87,VWS V14.01,2013-05-24 23:55:00,
2013-05-24 19:56:00,56.7,54.1,29.73,North,357,2.0,5.0,91,0.02,,SKC,0.87,VWS V14.01,2013-05-24 23:56:00,
2013-05-24 19:57:00,56.7,54.1,29.73,North,356,6.0,6.0,91,0.02,,SKC,0.87,VWS V14.01,2013-05-24 23:57:00,
2013-05-24 20:00:00,56.6,54.0,29.73,North,354,0.0,6.0,91,0.02,,SKC,0.87,VWS V14.01,2013-05-25 00:00:00,
2013-05-24 20:01:00,56.6,54.0,29.73,North,354,0.0,0.0,91,0.02,,SKC,0.87,VWS V14.01,2013-05-25 00:01:00,
2013-05-24 20:03:00,56.6,54.0,29.73,NW,326,4.0,5.0,91,0.02,,SKC,0.87,VWS V14.01,2013-05-25 00:03:00,
2013-05-24 20:05:00,56.5,54.2,29.73,NNW,337,3.0,6.0,92,0.02,,SKC,0.87,VWS V14.01,2013-05-25 00:05:00,
2013-05-24 20:06:00,56.5,54.2,29.73,NNW,340,5.0,5.0,92,0.02,,SKC,0.87,VWS V14.01,2013-05-25 00:06:00,
2013-05-24 20:08:00,56.5,54.2,29.73,SE,137,6.0,7.0,92,0.02,,SKC,0.87,VWS V14.01,2013-05-25 00:08:00,
2013-05-24 20:09:00,56.5,54.2,29.73,SE,137,6.0,7.0,92,0.02,,SKC,0.87,VWS V14.01,2013-05-25 00:09:00,
2013-05-24 20:10:00,56.3,54.0,29.73,NW,323,1.0,1.0,92,0.02,,SKC,0.87,VWS V14.01,2013-05-25 00:10:00,
2013-05-24 20:11:00,56.3,54.0,29.73,NW,325,6.0,8.0,92,0.02,,SKC,0.87,VWS V14.01,2013-05-25 00:11:00,
2013-05-24 20:12:00,56.3,54.0,29.73,NW,325,6.0,8.0,92,0.02,,SKC,0.87,VWS V14.01,2013-05-25 00:12:00,
2013-05-24 20:14:00,56.2,53.9,29.73,SE,126,6.0,8.0,92,0.02,,SKC,0.87,VWS V14.01,2013-05-25 00:14:00,
2013-05-24 20:15:00,56.2,53.9,29.73,NNW,340,9.0,9.0,92,0.02,,SKC,0.87,VWS V14.01,2013-05-25 00:15:00,
2013-05-24 20:16:00,56.0,53.7,29.73,SE,138,2.0,9.0,92,0.02,,SKC,0.87,VWS V14.01,2013-05-25 00:16:00,
2013-05-24 20:17:00,55.9,53.6,29.73,North,356,16.0,16.0,92,0.02,,SKC,0.87,VWS V14.01,2013-05-25 00:17:00,
2013-05-24 20:19:00,55.7,53.4,29.73,NNW,343,2.0,16.0,92,0.02,,SKC,0.87,VWS V14.01,2013-05-25 00:19:00,
2013-05-24 20:20:00,55.7,53.4,29.73,North,357,6.0,6.0,92,0.02,,SKC,0.87,VWS V14.01,2013-05-25 00:20:00,
2013-05-24 20:21:00,55.7,53.4,29.73,SE,133,2.0,6.0,92,0.02,,SKC,0.87,VWS V14.01,2013-05-25 00:21:00,
2013-05-24 20:22:00,55.7,53.4,29.73,North,354,1.0,6.0,92,0.02,,SKC,0.87,VWS V14.01,2013-05-25 00:22:00,
2013-05-24 20:24:00,55.6,53.3,29.73,North,349,1.0,6.0,92,0.02,,SKC,0.87,VWS V14.01,2013-05-25 00:24:00,
2013-05-24 20:25:00,55.6,53.3,29.73,North,356,0.0,1.0,92,0.02,,SKC,0.87,VWS V14.01,2013-05-25 00:25:00,
2013-05-24 20:26:00,55.6,53.0,29.73,North,356,2.0,2.0,91,0.02,,SKC,0.87,VWS V14.01,2013-05-25 00:26:00,
2013-05-24 20:28:00,55.4,52.8,29.73,SE,134,0.0,7.0,91,0.02,,SKC,0.87,VWS V14.01,2013-05-25 00:28:00,
2013-05-24 20:30:00,55.4,52.8,29.73,SE,130,0.0,7.0,91,0.02,,SKC,0.87,VWS V14.01,2013-05-25 00:30:00,
2013-05-24 20:31:00,55.3,52.7,29.73,North,354,1.0,2.0,91,0.02,,SKC,0.87,VWS V14.01,2013-05-25 00:31:00,
2013-05-24 20:32:00,55.3,52.7,29.73,SSE,151,6.0,6.0,91,0.02,,SKC,0.87,VWS V14.01,2013-05-25 00:32:00,
2013-05-24 20:33:00,55.3,52.7,29.73,North,357,2.0,6.0,91,0.02,,SKC,0.87,VWS V14.01,2013-05-25 00:33:00,
2013-05-24 20:35:00,55.1,52.8,29.73,North,357,2.0,6.0,92,0.02,,SKC,0.87,VWS V14.01,2013-05-25 00:35:00,
2013-05-24 20:36:00,55.1,52.8,29.73,NW,325,2.0,3.0,92,0.02,,SKC,0.87,VWS V14.01,2013-05-25 00:36:00,
2013-05-24 20:37:00,55.1,52.8,29.73,SE,134,3.0,6.0,92,0.02,,SKC,0.87,VWS V14.01,2013-05-25 00:37:00,
2013-05-24 20:38:00,55.1,52.8,29.73,NNW,330,2.0,6.0,92,0.02,,SKC,0.87,VWS V14.01,2013-05-25 00:38:00,
2013-05-24 20:40:00,55.0,52.7,29.73,North,349,1.0,3.0,92,0.02,,SKC,0.87,VWS V14.01,2013-05-25 00:40:00,
2013-05-24 20:41:00,55.0,52.7,29.73,North,356,2.0,5.0,92,0.02,,SKC,0.87,VWS V14.01,2013-05-25 00:41:00,
2013-05-24 20:42:00,55.0,52.7,29.73,NNW,335,3.0,6.0,92,0.02,,SKC,0.87,VWS V14.01,2013-05-25 00:42:00,
2013-05-24 20:43:00,54.8,52.5,29.73,North,357,1.0,12.0,92,0.02,,SKC,0.87,VWS V14.01,2013-05-25 00:43:00,
2013-05-24 20:45:00,57.2,54.6,29.73,North,353,2.0,6.0,91,0.00,,SKC,0.85,VWS V14.01,2013-05-25 00:45:00,
2013-05-24 20:46:00,54.7,52.4,29.74,North,349,1.0,6.0,92,0.02,,SKC,0.87,VWS V14.01,2013-05-25 00:46:00,
2013-05-24 20:47:00,54.7,52.4,29.74,SE,134,0.0,6.0,92,0.02,,SKC,0.87,VWS V14.01,2013-05-25 00:47:00,
2013-05-24 20:48:00,54.7,52.4,29.74,NNW,344,1.0,6.0,92,0.02,,SKC,0.87,VWS V14.01,2013-05-25 00:48:00,
2013-05-24 20:49:00,54.7,52.4,29.74,SSE,155,4.0,6.0,92,0.02,,SKC,0.87,VWS V14.01,2013-05-25 00:49:00,
2013-05-24 20:50:00,56.9,54.3,29.73,NNW,343,0.0,6.0,91,0.02,,SKC,0.87,VWS V14.01,2013-05-25 00:50:00,
2013-05-24 20:51:00,54.5,52.2,29.74,North,356,1.0,7.0,92,0.00,,SKC,0.87,VWS V14.01,2013-05-25 00:51:00,
2013-05-24 20:52:00,54.5,52.2,29.74,North,357,1.0,7.0,92,0.00,,SKC,0.87,VWS V14.01,2013-05-25 00:52:00,
2013-05-24 20:53:00,54.5,52.2,29.74,NNW,347,3.0,7.0,92,0.00,,SKC,0.87,VWS V14.01,2013-05-25 00:53:00,
2013-05-24 20:54:00,54.4,52.1,29.74,NNW,340,8.0,8.0,92,0.00,,SKC,0.87,VWS V14.01,2013-05-25 00:54:00,
2013-05-24 20:55:00,56.7,54.1,29.73,NNW,340,1.0,6.0,91,0.02,,SKC,0.87,VWS V14.01,2013-05-25 00:55:00,
2013-05-24 20:57:00,54.1,51.5,29.74,SE,126,3.0,8.0,91,0.00,,SKC,0.87,VWS V14.01,2013-05-25 00:57:00,
2013-05-24 20:58:00,54.1,51.5,29.74,SE,124,2.0,8.0,91,0.00,,SKC,0.87,VWS V14.01,2013-05-25 00:58:00,
2013-05-24 20:59:00,53.9,51.3,29.75,North,350,0.0,11.0,91,0.00,,SKC,0.87,VWS V14.01,2013-05-25 00:59:00,
2013-05-24 21:00:00,56.6,54.0,29.73,North,354,0.0,6.0,91,0.02,,SKC,0.87,VWS V14.01,2013-05-25 01:00:00,
2013-05-24 21:02:00,53.8,51.2,29.75,SE,138,6.0,7.0,91,0.00,,SKC,0.87,VWS V14.01,2013-05-25 01:02:00,
2013-05-24 21:03:00,53.8,51.2,29.75,SE,133,1.0,7.0,91,0.00,,SKC,0.87,VWS V14.01,2013-05-25 01:03:00,
2013-05-24 21:04:00,53.8,51.2,29.75,SSW,193,2.0,7.0,91,0.00,,SKC,0.87,VWS V14.01,2013-05-25 01:04:00,
2013-05-24 21:05:00,53.8,51.2,29.75,NNW,343,8.0,11.0,91,0.00,,SKC,0.87,VWS V14.01,2013-05-25 01:05:00,
2013-05-24 21:07:00,53.6,51.0,29.75,SE,134,3.0,10.0,91,0.00,,SKC,0.87,VWS V14.01,2013-05-25 01:07:00,
2013-05-24 21:08:00,53.5,50.9,29.75,North,357,3.0,10.0,91,0.00,,SKC,0.87,VWS V14.01,2013-05-25 01:08:00,
2013-05-24 21:09:00,53.5,50.9,29.75,NNW,328,5.0,10.0,91,0.00,,SKC,0.87,VWS V14.01,2013-05-25 01:09:00,
2013-05-24 21:10:00,56.3,54.0,29.73,NW,323,1.0,7.0,92,0.02,,SKC,0.87,VWS V14.01,2013-05-25 01:10:00,
2013-05-24 21:11:00,53.5,50.9,29.75,SE,128,3.0,5.0,91,0.00,,SKC,0.87,VWS V14.01,2013-05-25 01:11:00,
2013-05-24 21:13:00,53.5,50.9,29.75,SE,137,2.0,6.0,91,0.00,,SKC,0.87,VWS V14.01,2013-05-25 01:13:00,
2013-05-24 21:14:00,53.5,50.9,29.75,North,357,2.0,6.0,91,0.00,,SKC,0.87,VWS V14.01,2013-05-25 01:14:00,
2013-05-24 21:15:00,53.5,50.9,29.75,North,354,2.0,6.0,91,0.00,,SKC,0.87,VWS V14.01,2013-05-25 01:15:00,
2013-05-24 21:16:00,53.3,50.7,29.75,SSE,147,2.0,7.0,91,0.00,,SKC,0.87,VWS V14.01,2013-05-25 01:16:00,
2013-05-24 21:18:00,53.3,50.7,29.75,SE,127,2.0,7.0,91,0.00,,SKC,0.87,VWS V14.01,2013-05-25 01:18:00,
2013-05-24 21:19:00,53.3,50.7,29.75,NW,325,2.0,7.0,91,0.00,,SKC,0.87,VWS V14.01,2013-05-25 01:19:00,
2013-05-24 21:20:00,53.3,50.7,29.75,SE,143,3.0,3.0,91,0.00,,SKC,0.87,VWS V14.01,2013-05-25 01:20:00,
2013-05-24 21:21:00,53.1,50.5,29.75,SSE,147,2.0,8.0,91,0.00,,SKC,0.87,VWS V14.01,2013-05-25 01:21:00,
2013-05-24 21:23:00,52.9,50.3,29.75,NNW,336,1.0,8.0,91,0.00,,SKC,0.87,VWS V14.01,2013-05-25 01:23:00,
2013-05-24 21:24:00,52.9,50.3,29.75,NNW,336,1.0,8.0,91,0.00,,SKC,0.87,VWS V14.01,2013-05-25 01:24:00,
2013-05-24 21:25:00,52.8,50.0,29.75,SE,140,5.0,8.0,90,0.00,,SKC,0.87,VWS V14.01,2013-05-25 01:25:00,
2013-05-24 21:27:00,52.6,49.8,29.75,NNW,330,2.0,10.0,90,0.00,,SKC,0.87,VWS V14.01,2013-05-25 01:27:00,
2013-05-24 21:29:00,52.5,49.7,29.75,SSE,164,10.0,10.0,90,0.00,,SKC,0.87,VWS V14.01,2013-05-25 01:29:00,
2013-05-24 21:30:00,52.5,49.7,29.76,NNW,336,3.0,10.0,90,0.00,,SKC,0.87,VWS V14.01,2013-05-25 01:30:00,
2013-05-24 21:31:00,52.3,49.2,29.76,NW,318,3.0,8.0,89,0.00,,SKC,0.87,VWS V14.01,2013-05-25 01:31:00,
2013-05-24 21:33:00,52.3,49.2,29.76,SSE,147,5.0,8.0,89,0.00,,SKC,0.87,VWS V14.01,2013-05-25 01:33:00,
2013-05-24 21:34:00,52.3,49.5,29.76,NNW,336,5.0,8.0,90,0.00,,SKC,0.87,VWS V14.01,2013-05-25 01:34:00,
2013-05-24 21:35:00,52.2,49.4,29.76,North,354,2.0,2.0,90,0.00,,SKC,0.87,VWS V14.01,2013-05-25 01:35:00,
2013-05-24 21:36:00,52.2,49.4,29.76,North,356,4.0,5.0,90,0.00,,SKC,0.87,VWS V14.01,2013-05-25 01:36:00,
2013-05-24 21:38:00,52.2,49.4,29.76,NNW,342,5.0,9.0,90,0.00,,SKC,0.87,VWS V14.01,2013-05-25 01:38:00,
2013-05-24 21:39:00,52.2,49.4,29.76,SE,126,2.0,9.0,90,0.00,,SKC,0.87,VWS V14.01,2013-05-25 01:39:00,
2013-05-24 21:40:00,52.0,49.2,29.76,NNW,336,0.0,9.0,90,0.00,,SKC,0.87,VWS V14.01,2013-05-25 01:40:00,
2013-05-24 21:41:00,51.9,49.1,29.76,SE,144,2.0,7.0,90,0.00,,SKC,0.87,VWS V14.01,2013-05-25 01:41:00,
2013-05-24 21:43:00,51.7,48.9,29.76,NW,315,2.0,10.0,90,0.00,,SKC,0.87,VWS V14.01,2013-05-25 01:43:00,
2013-05-24 21:44:00,51.7,48.9,29.76,NNW,335,9.0,10.0,90,0.00,,SKC,0.87,VWS V14.01,2013-05-25 01:44:00,
2013-05-24 21:45:00,51.7,48.9,29.76,NW,322,2.0,10.0,90,0.00,,SKC,0.87,VWS V14.01,2013-05-25 01:45:00,
2013-05-24 21:47:00,51.6,48.8,29.76,NNW,339,5.0,11.0,90,0.00,,SKC,0.87,VWS V14.01,2013-05-25 01:47:00,
2013-05-24 21:48:00,51.4,48.6,29.76,North,356,1.0,11.0,90,0.00,,SKC,0.87,VWS V14.01,2013-05-25 01:48:00,
2013-05-24 21:50:00,51.4,48.6,29.76,NNW,328,1.0,11.0,90,0.00,,SKC,0.87,VWS V14.01,2013-05-25 01:50:00,
2013-05-24 21:52:00,51.3,48.8,29.76,NW,326,3.0,6.0,91,0.00,,SKC,0.87,VWS V14.01,2013-05-25 01:52:00,
2013-05-24 21:54:00,51.3,48.8,29.76,ESE,121,0.0,6.0,91,0.00,,SKC,0.87,VWS V14.01,2013-05-25 01:54:00,
2013-05-24 21:55:00,51.1,48.6,29.76,SE,133,4.0,4.0,91,0.00,,SKC,0.87,VWS V14.01,2013-05-25 01:55:00,
2013-05-24 21:56:00,51.1,48.6,29.76,NNW,346,2.0,4.0,91,0.00,,SKC,0.87,VWS V14.01,2013-05-25 01:56:00,
2013-05-24 21:58:00,51.0,48.5,29.76,North,357,1.0,10.0,91,0.00,,SKC,0.87,VWS V14.01,2013-05-25 01:58:00,
2013-05-24 21:59:00,51.0,48.5,29.76,SE,124,6.0,10.0,91,0.00,,SKC,0.87,VWS V14.01,2013-05-25 01:59:00,
2013-05-24 22:00:00,53.9,51.3,29.75,NW,320,3.0,11.0,91,0.00,,SKC,0.87,VWS V14.01,2013-05-25 02:00:00,
2013-05-24 22:01:00,50.8,48.3,29.76,NNW,332,0.0,6.0,91,0.00,,SKC,0.87,VWS V14.01,2013-05-25 02:01:00,
2013-05-24 22:02:00,50.8,48.6,29.76,NW,318,3.0,8.0,92,0.00,,SKC,0.87,VWS V14.01,2013-05-25 02:02:00,
2013-05-24 22:03:00,50.7,48.5,29.76,NW,306,1.0,8.0,92,0.00,,SKC,0.87,VWS V14.01,2013-05-25 02:03:00,
2013-05-24 22:05:00,50.7,48.5,29.76,NNW,342,3.0,8.0,92,0.00,,SKC,0.87,VWS V14.01,2013-05-25 02:05:00,
2013-05-24 22:06:00,50.7,48.5,29.76,SE,126,7.0,10.0,92,0.00,,SKC,0.87,VWS V14.01,2013-05-25 02:06:00,
2013-05-24 22:07:00,50.5,48.3,29.76,NNW,343,2.0,10.0,92,0.00,,SKC,0.87,VWS V14.01,2013-05-25 02:07:00,
2013-05-24 22:09:00,50.5,48.3,29.76,NW,318,2.0,11.0,92,0.00,,SKC,0.87,VWS V14.01,2013-05-25 02:09:00,
2013-05-24 22:10:00,50.5,48.3,29.76,NNW,335,1.0,6.0,92,0.00,,SKC,0.87,VWS V14.01,2013-05-25 02:10:00,
2013-05-24 22:11:00,50.5,48.3,29.76,North,352,3.0,6.0,92,0.00,,SKC,0.87,VWS V14.01,2013-05-25 02:11:00,
2013-05-24 22:12:00,50.5,48.3,29.76,NNW,333,2.0,6.0,92,0.00,,SKC,0.87,VWS V14.01,2013-05-25 02:12:00,
2013-05-24 22:13:00,50.5,48.3,29.76,NNW,335,5.0,6.0,92,0.00,,SKC,0.87,VWS V14.01,2013-05-25 02:13:00,
2013-05-24 22:14:00,50.4,48.2,29.76,North,357,2.0,6.0,92,0.00,,SKC,0.87,VWS V14.01,2013-05-25 02:14:00,
2013-05-24 22:15:00,50.4,48.2,29.76,North,357,3.0,7.0,92,0.00,,SKC,0.87,VWS V14.01,2013-05-25 02:15:00,
2013-05-24 22:17:00,50.4,48.2,29.76,North,357,0.0,7.0,92,0.00,,SKC,0.87,VWS V14.01,2013-05-25 02:17:00,
2013-05-24 22:18:00,50.4,48.5,29.76,SE,126,2.0,7.0,93,0.00,,SKC,0.87,VWS V14.01,2013-05-25 02:18:00,
2013-05-24 22:20:00,50.5,48.6,29.76,NNW,344,2.0,8.0,93,0.00,,SKC,0.87,VWS V14.01,2013-05-25 02:20:00,
2013-05-24 22:21:00,50.5,48.6,29.76,NNW,347,0.0,3.0,93,0.00,,SKC,0.87,VWS V14.01,2013-05-25 02:21:00,
2013-05-24 22:22:00,50.5,48.6,29.76,NNW,342,3.0,5.0,93,0.00,,SKC,0.87,VWS V14.01,2013-05-25 02:22:00,
2013-05-24 22:23:00,50.5,48.6,29.76,NNW,340,3.0,8.0,93,0.00,,SKC,0.87,VWS V14.01,2013-05-25 02:23:00,
2013-05-24 22:25:00,50.4,48.5,29.76,SE,126,5.0,8.0,93,0.00,,SKC,0.87,VWS V14.01,2013-05-25 02:25:00,
2013-05-24 22:26:00,50.4,48.5,29.76,NNW,342,2.0,6.0,93,0.00,,SKC,0.87,VWS V14.01,2013-05-25 02:26:00,
2013-05-24 22:27:00,50.4,48.5,29.76,NNW,328,1.0,6.0,93,0.00,,SKC,0.87,VWS V14.01,2013-05-25 02:27:00,
2013-05-24 22:30:00,50.2,48.3,29.76,NW,325,2.0,7.0,93,0.00,,SKC,0.87,VWS V14.01,2013-05-25 02:30:00,
2013-05-24 22:31:00,50.2,48.3,29.76,NNW,328,5.0,8.0,93,0.00,,SKC,0.87,VWS V14.01,2013-05-25 02:31:00,
2013-05-24 22:32:00,50.2,48.3,29.76,NNW,340,2.0,8.0,93,0.00,,SKC,0.87,VWS V14.01,2013-05-25 02:32:00,
2013-05-24 22:35:00,50.1,48.2,29.76,NNW,343,3.0,3.0,93,0.00,,SKC,0.87,VWS V14.01,2013-05-25 02:35:00,
2013-05-24 22:37:00,50.1,48.2,29.76,NNW,337,3.0,7.0,93,0.00,,SKC,0.87,VWS V14.01,2013-05-25 02:37:00,
2013-05-24 22:40:00,49.9,48.2,29.76,NNW,336,6.0,6.0,94,0.01,,SKC,0.88,VWS V14.01,2013-05-25 02:40:00,
2013-05-24 22:41:00,49.9,48.2,29.76,SE,131,2.0,7.0,94,0.01,,SKC,0.88,VWS V14.01,2013-05-25 02:41:00,
2013-05-24 22:42:00,49.9,48.2,29.76,North,354,3.0,7.0,94,0.01,,SKC,0.88,VWS V14.01,2013-05-25 02:42:00,
2013-05-24 22:45:00,49.8,48.2,29.77,WSW,248,0.0,0.0,94,0.01,,SKC,0.88,VWS V14.01,2013-05-25 02:45:00,
2013-05-24 22:46:00,49.8,48.2,29.77,NW,313,1.0,1.0,94,0.01,,SKC,0.88,VWS V14.01,2013-05-25 02:46:00,
2013-05-24 22:47:00,49.8,48.2,29.77,SE,126,5.0,5.0,94,0.01,,SKC,0.88,VWS V14.01,2013-05-25 02:47:00,
2013-05-24 22:48:00,49.8,48.2,29.77,NNW,346,4.0,9.0,94,0.01,,SKC,0.88,VWS V14.01,2013-05-25 02:48:00,
2013-05-24 22:50:00,51.4,48.6,29.76,NNW,328,0.0,11.0,90,0.00,,SKC,0.87,VWS V14.01,2013-05-25 02:50:00,
2013-05-24 22:51:00,49.6,48.0,29.77,North,350,2.0,3.0,94,0.01,,SKC,0.88,VWS V14.01,2013-05-25 02:51:00,
2013-05-24 22:52:00,49.6,48.0,29.77,SE,127,2.0,7.0,94,0.01,,SKC,0.88,VWS V14.01,2013-05-25 02:52:00,
2013-05-24 22:53:00,49.6,48.0,29.77,SE,136,5.0,7.0,94,0.01,,SKC,0.88,VWS V14.01,2013-05-25 02:53:00,
2013-05-24 22:55:00,51.1,48.6,29.76,NNW,340,3.0,10.0,91,0.00,,SKC,0.87,VWS V14.01,2013-05-25 02:55:00,
2013-05-24 22:56:00,49.5,47.8,29.77,NNW,330,1.0,5.0,94,0.01,,SKC,0.88,VWS V14.01,2013-05-25 02:56:00,
2013-05-24 22:57:00,49.5,47.8,29.77,NNW,340,5.0,6.0,94,0.01,,SKC,0.88,VWS V14.01,2013-05-25 02:57:00,
2013-05-24 22:58:00,49.5,47.8,29.77,SSE,152,7.0,8.0,94,0.01,,SKC,0.88,VWS V14.01,2013-05-25 02:58:00,
2013-05-24 22:59:00,49.5,47.8,29.77,NNW,340,3.0,8.0,94,0.01,,SKC,0.88,VWS V14.01,2013-05-25 02:59:00,
2013-05-24 23:00:00,51.0,48.5,29.76,NNW,328,2.0,10.0,91,0.00,,SKC,0.87,VWS V14.01,2013-05-25 03:00:00,
2013-05-24 23:01:00,49.5,47.8,29.77,SE,126,3.0,7.0,94,0.01,,SKC,0.00,VWS V14.01,2013-05-25 03:01:00,
2013-05-24 23:03:00,49.4,47.8,29.77,SE,141,3.0,7.0,94,0.01,,SKC,0.00,VWS V14.01,2013-05-25 03:03:00,
2013-05-24 23:04:00,49.4,47.8,29.77,NNW,335,6.0,8.0,94,0.01,,SKC,0.00,VWS V14.01,2013-05-25 03:04:00,
2013-05-24 23:05:00,50.7,48.5,29.76,North,356,5.0,8.0,92,0.00,,SKC,0.87,VWS V14.01,2013-05-25 03:05:00,
2013-05-24 23:07:00,49.4,47.8,29.77,North,357,0.0,5.0,94,0.01,,SKC,0.00,VWS V14.01,2013-05-25 03:07:00,
2013-05-24 23:08:00,49.4,47.8,29.77,North,357,11.0,11.0,94,0.01,,SKC,0.00,VWS V14.01,2013-05-25 03:08:00,
2013-05-24 23:09:00,49.4,47.8,29.77,NNW,329,2.0,11.0,94,0.01,,SKC,0.00,VWS V14.01,2013-05-25 03:09:00,
2013-05-24 23:10:00,49.4,47.8,29.77,ESE,123,4.0,11.0,94,0.01,,SKC,0.00,VWS V14.01,2013-05-25 03:10:00,
2013-05-24 23:12:00,49.2,47.5,29.77,North,354,5.0,6.0,94,0.01,,SKC,0.00,VWS V14.01,2013-05-25 03:12:00,
2013-05-24 23:13:00,49.2,47.5,29.77,NNW,340,3.0,6.0,94,0.01,,SKC,0.00,VWS V14.01,2013-05-25 03:13:00,
2013-05-24 23:14:00,49.2,47.5,29.76,NW,325,8.0,8.0,94,0.01,,SKC,0.00,VWS V14.01,2013-05-25 03:14:00,
2013-05-24 23:15:00,49.2,47.5,29.76,NNW,337,5.0,11.0,94,0.01,,SKC,0.00,VWS V14.01,2013-05-25 03:15:00,
2013-05-24 23:17:00,49.1,47.5,29.76,SE,124,2.0,11.0,94,0.01,,SKC,0.00,VWS V14.01,2013-05-25 03:17:00,
2013-05-24 23:18:00,49.1,47.5,29.76,North,357,0.0,11.0,94,0.01,,SKC,0.00,VWS V14.01,2013-05-25 03:18:00,
2013-05-24 23:19:00,49.1,47.5,29.76,NW,313,2.0,11.0,94,0.01,,SKC,0.00,VWS V14.01,2013-05-25 03:19:00,
2013-05-24 23:20:00,49.1,47.5,29.76,North,357,3.0,11.0,94,0.01,,SKC,0.00,VWS V14.01,2013-05-25 03:20:00,
2013-05-24 23:22:00,49.1,47.5,29.76,NW,319,1.0,11.0,94,0.01,,SKC,0.00,VWS V14.01,2013-05-25 03:22:00,
2013-05-24 23:23:00,49.1,47.5,29.76,NNW,336,3.0,11.0,94,0.01,,SKC,0.00,VWS V14.01,2013-05-25 03:23:00,
2013-05-24 23:24:00,49.1,47.5,29.76,NNW,337,2.0,11.0,94,0.01,,SKC,0.00,VWS V14.01,2013-05-25 03:24:00,
2013-05-24 23:25:00,48.9,47.2,29.76,North,357,0.0,4.0,94,0.01,,SKC,0.00,VWS V14.01,2013-05-25 03:25:00,
2013-05-24 23:27:00,48.9,47.2,29.76,North,357,2.0,12.0,94,0.01,,SKC,0.00,VWS V14.01,2013-05-25 03:27:00,
2013-05-24 23:29:00,48.9,47.2,29.77,NNW,333,0.0,12.0,94,0.01,,SKC,0.00,VWS V14.01,2013-05-25 03:29:00,
2013-05-24 23:30:00,48.9,47.2,29.77,SE,143,5.0,12.0,94,0.01,,SKC,0.00,VWS V14.01,2013-05-25 03:30:00,
2013-05-24 23:34:00,48.9,47.2,29.77,North,353,6.0,7.0,94,0.01,,SKC,0.00,VWS V14.01,2013-05-25 03:34:00,
2013-05-24 23:35:00,48.9,47.2,29.77,NNW,336,2.0,7.0,94,0.01,,SKC,0.00,VWS V14.01,2013-05-25 03:35:00,
2013-05-24 23:36:00,48.9,47.2,29.77,NNW,336,1.0,3.0,94,0.01,,SKC,0.00,VWS V14.01,2013-05-25 03:36:00,
2013-05-24 23:39:00,48.9,47.5,29.77,NW,323,1.0,8.0,95,0.01,,SKC,0.00,VWS V14.01,2013-05-25 03:39:00,
2013-05-24 23:40:00,48.9,47.5,29.77,NNW,346,2.0,2.0,95,0.00,,SKC,0.00,VWS V14.01,2013-05-25 03:40:00,
2013-05-24 23:41:00,48.9,47.5,29.77,North,357,3.0,5.0,95,0.00,,SKC,0.00,VWS V14.01,2013-05-25 03:41:00,
2013-05-24 23:44:00,48.9,47.5,29.77,NNW,333,1.0,7.0,95,0.00,,SKC,0.00,VWS V14.01,2013-05-25 03:44:00,
2013-05-24 23:45:00,48.9,47.5,29.77,NNW,330,3.0,7.0,95,0.00,,SKC,0.00,VWS V14.01,2013-05-25 03:45:00,
2013-05-24 23:46:00,48.9,47.5,29.77,SE,136,4.0,7.0,95,0.00,,SKC,0.00,VWS V14.01,2013-05-25 03:46:00,
2013-05-24 23:50:00,48.9,47.5,29.77,North,357,5.0,6.0,95,0.00,,SKC,0.00,VWS V14.01,2013-05-25 03:50:00,
2013-05-24 23:51:00,48.9,47.5,29.77,SE,126,1.0,7.0,95,0.00,,SKC,0.00,VWS V14.01,2013-05-25 03:51:00,
2013-05-24 23:52:00,48.9,47.5,29.77,ESE,123,1.0,7.0,95,0.00,,SKC,0.00,VWS V14.01,2013-05-25 03:52:00,
2013-05-24 23:55:00,48.9,47.5,29.77,North,352,2.0,5.0,95,0.00,,SKC,0.00,VWS V14.01,2013-05-25 03:55:00,
2013-05-24 23:56:00,48.9,47.5,29.77,North,356,4.0,8.0,95,0.00,,SKC,0.00,VWS V14.01,2013-05-25 03:56:00,
2013-05-24 23:57:00,48.9,47.5,29.77,NNW,346,4.0,8.0,95,0.00,,SKC,0.00,VWS V14.01,2013-05-25 03:57:00,